Time,TemperatureF,DewpointF,PressureIn,WindDirection,WindDirectionDegrees,WindSpeedMPH,WindSpeedGustMPH,Humidity,HourlyPrecipIn,Conditions,Clouds,dailyrainin,SolarRadiationWatts/m^2,SoftwareType,DateUTC
2013-06-21 00:00:00,83.3,77.2,30.08,East,96,0.0,6.0,82,0.00,,FEW,0.00,0.00,VWS V14.01,2013-06-21 04:00:00,
2013-06-21 00:01:00,83.3,77.2,30.07,ENE,70,1.0,6.0,82,0.00,,FEW,0.00,0.00,VWS V14.01,2013-06-21 04:01:00,
2013-06-21 00:06:00,83.2,77.1,30.07,East,101,0.0,4.0,82,0.00,,FEW,0.00,0.00,VWS V14.01,2013-06-21 04:06:00,
2013-06-21 00:10:00,83.2,77.1,30.07,ENE,75,2.0,4.0,82,0.00,,FEW,0.00,0.00,VWS V14.01,2013-06-21 04:10:00,
2013-06-21 00:11:00,83.2,77.1,30.07,SE,133,2.0,4.0,82,0.00,,FEW,0.00,0.00,VWS V14.01,2013-06-21 04:11:00,
2013-06-21 00:16:00,83.2,77.5,30.07,SE,144,1.0,5.0,83,0.00,,FEW,0.00,0.00,VWS V14.01,2013-06-21 04:16:00,
2013-06-21 00:17:00,83.2,77.5,30.07,SE,126,2.0,5.0,83,0.00,,FEW,0.00,0.00,VWS V14.01,2013-06-21 04:17:00,
2013-06-21 00:20:00,83.2,77.1,30.07,ESE,105,1.0,7.0,82,0.00,,FEW,0.00,0.00,VWS V14.01,2013-06-21 04:20:00,
2013-06-21 00:21:00,83.2,77.1,30.07,SE,129,2.0,7.0,82,0.00,,FEW,0.00,0.00,VWS V14.01,2013-06-21 04:21:00,
2013-06-21 00:22:00,83.1,77.0,30.07,ENE,78,3.0,4.0,82,0.00,,FEW,0.00,0.00,VWS V14.01,2013-06-21 04:22:00,
2013-06-21 00:26:00,83.1,77.0,30.07,East,90,0.0,9.0,82,0.00,,FEW,0.00,0.00,VWS V14.01,2013-06-21 04:26:00,
2013-06-21 00:27:00,83.1,77.0,30.07,SE,131,1.0,9.0,82,0.00,,FEW,0.00,0.00,VWS V14.01,2013-06-21 04:27:00,
2013-06-21 00:30:00,83.1,77.0,30.06,SE,130,1.0,9.0,82,0.00,,FEW,0.00,0.00,VWS V14.01,2013-06-21 04:30:00,
2013-06-21 00:31:00,83.1,77.0,30.06,SE,130,0.0,9.0,82,0.00,,FEW,0.00,0.00,VWS V14.01,2013-06-21 04:31:00,
2013-06-21 00:32:00,83.1,77.0,30.06,SE,130,0.0,1.0,82,0.00,,FEW,0.00,0.00,VWS V14.01,2013-06-21 04:32:00,
2013-06-21 00:36:00,83.0,77.3,30.06,East,97,0.0,5.0,83,0.00,,FEW,0.00,0.00,VWS V14.01,2013-06-21 04:36:00,
2013-06-21 00:37:00,83.1,77.4,30.06,East,97,1.0,5.0,83,0.00,,FEW,0.00,0.00,VWS V14.01,2013-06-21 04:37:00,
2013-06-21 00:40:00,83.1,77.4,30.06,ENE,59,1.0,7.0,83,0.00,,FEW,0.00,0.00,VWS V14.01,2013-06-21 04:40:00,
2013-06-21 00:41:00,83.1,77.4,30.06,ENE,66,0.0,7.0,83,0.00,,FEW,0.00,0.00,VWS V14.01,2013-06-21 04:41:00,
2013-06-21 00:42:00,83.1,77.4,30.06,SE,139,0.0,1.0,83,0.00,,FEW,0.00,0.00,VWS V14.01,2013-06-21 04:42:00,
2013-06-21 00:43:00,83.1,77.4,30.06,East,89,5.0,5.0,83,0.00,,FEW,0.00,0.00,VWS V14.01,2013-06-21 04:43:00,
2013-06-21 00:46:00,83.1,77.4,30.06,SE,136,1.0,5.0,83,0.00,,FEW,0.00,0.00,VWS V14.01,2013-06-21 04:46:00,
2013-06-21 00:47:00,83.1,77.4,30.06,SE,136,1.0,5.0,83,0.00,,FEW,0.00,0.00,VWS V14.01,2013-06-21 04:47:00,
2013-06-21 00:48:00,83.1,77.4,30.06,NE,53,0.0,5.0,83,0.00,,FEW,0.00,0.00,VWS V14.01,2013-06-21 04:48:00,
2013-06-21 00:50:00,83.1,77.4,30.06,NE,41,2.0,5.0,83,0.00,,FEW,0.00,0.00,VWS V14.01,2013-06-21 04:50:00,
2013-06-21 00:52:00,83.1,77.4,30.06,East,94,1.0,2.0,83,0.00,,FEW,0.00,0.00,VWS V14.01,2013-06-21 04:52:00,
2013-06-21 00:53:00,83.1,77.4,30.06,ESE,107,1.0,4.0,83,0.00,,FEW,0.00,0.00,VWS V14.01,2013-06-21 04:53:00,
2013-06-21 00:57:00,83.0,77.3,30.06,NE,48,3.0,5.0,83,0.00,,FEW,0.00,0.00,VWS V14.01,2013-06-21 04:57:00,
2013-06-21 00:58:00,83.0,77.3,30.06,ESE,113,2.0,5.0,83,0.00,,FEW,0.00,0.00,VWS V14.01,2013-06-21 04:58:00,
2013-06-21 01:00:00,82.9,77.2,30.05,ENE,63,1.0,5.0,83,0.00,,FEW,0.00,0.00,VWS V14.01,2013-06-21 05:00:00,
2013-06-21 01:02:00,82.9,77.2,30.05,ENE,71,1.0,2.0,83,0.00,,FEW,0.00,0.00,VWS V14.01,2013-06-21 05:02:00,
2013-06-21 01:03:00,82.9,77.2,30.05,ESE,119,3.0,5.0,83,0.00,,FEW,0.00,0.00,VWS V14.01,2013-06-21 05:03:00,
2013-06-21 01:07:00,83.1,77.8,30.05,East,79,1.0,5.0,84,0.00,,FEW,0.00,0.00,VWS V14.01,2013-06-21 05:07:00,
2013-06-21 01:08:00,83.1,77.8,30.05,ESE,112,1.0,5.0,84,0.00,,FEW,0.00,0.00,VWS V14.01,2013-06-21 05:08:00,
2013-06-21 01:09:00,83.1,77.8,30.05,ESE,110,1.0,5.0,84,0.00,,FEW,0.00,0.00,VWS V14.01,2013-06-21 05:09:00,
2013-06-21 01:10:00,83.0,77.7,30.05,ENE,76,0.0,7.0,84,0.00,,FEW,0.00,0.00,VWS V14.01,2013-06-21 05:10:00,
2013-06-21 01:12:00,83.0,77.7,30.05,ESE,110,1.0,1.0,84,0.00,,FEW,0.00,0.00,VWS V14.01,2013-06-21 05:12:00,
2013-06-21 01:13:00,83.1,77.8,30.05,ESE,109,2.0,5.0,84,0.00,,FEW,0.00,0.00,VWS V14.01,2013-06-21 05:13:00,
2013-06-21 01:14:00,83.1,77.8,30.05,ENE,68,0.0,5.0,84,0.00,,FEW,0.00,0.00,VWS V14.01,2013-06-21 05:14:00,
2013-06-21 01:17:00,83.1,78.1,30.05,SE,137,1.0,5.0,85,0.00,,FEW,0.00,0.00,VWS V14.01,2013-06-21 05:17:00,
2013-06-21 01:18:00,83.1,78.1,30.05,East,96,3.0,5.0,85,0.00,,FEW,0.00,0.00,VWS V14.01,2013-06-21 05:18:00,
2013-06-21 01:19:00,83.1,78.1,30.05,ESE,109,2.0,5.0,85,0.00,,FEW,0.00,0.00,VWS V14.01,2013-06-21 05:19:00,
2013-06-21 01:20:00,83.1,77.8,30.05,ESE,113,2.0,6.0,84,0.00,,FEW,0.00,0.00,VWS V14.01,2013-06-21 05:20:00,
2013-06-21 01:22:00,83.1,77.8,30.05,ESE,113,3.0,3.0,84,0.00,,FEW,0.00,0.00,VWS V14.01,2013-06-21 05:22:00,
2013-06-21 01:23:00,83.1,77.8,30.05,ESE,120,3.0,4.0,84,0.00,,FEW,0.00,0.00,VWS V14.01,2013-06-21 05:23:00,
2013-06-21 01:24:00,83.0,77.7,30.05,SE,136,6.0,6.0,84,0.00,,FEW,0.00,0.00,VWS V14.01,2013-06-21 05:24:00,
2013-06-21 01:27:00,82.8,77.1,30.05,SE,137,1.0,7.0,83,0.00,,FEW,0.00,0.00,VWS V14.01,2013-06-21 05:27:00,
2013-06-21 01:28:00,82.8,77.1,30.05,SE,132,3.0,7.0,83,0.00,,FEW,0.00,0.00,VWS V14.01,2013-06-21 05:28:00,
2013-06-21 01:29:00,82.7,77.0,30.05,ESE,111,1.0,7.0,83,0.00,,FEW,0.00,0.00,VWS V14.01,2013-06-21 05:29:00,
2013-06-21 01:30:00,82.6,76.9,30.05,ESE,104,9.0,9.0,83,0.00,,FEW,0.00,0.00,VWS V14.01,2013-06-21 05:30:00,
2013-06-21 01:32:00,82.6,76.6,30.05,SE,126,5.0,10.0,82,0.00,,FEW,0.00,0.00,VWS V14.01,2013-06-21 05:32:00,
2013-06-21 01:33:00,82.5,76.1,30.05,East,88,1.0,10.0,81,0.00,,FEW,0.00,0.00,VWS V14.01,2013-06-21 05:33:00,
2013-06-21 01:34:00,82.5,76.1,30.05,SSW,193,3.0,10.0,81,0.00,,FEW,0.00,0.00,VWS V14.01,2013-06-21 05:34:00,
2013-06-21 01:37:00,82.2,75.0,30.05,SE,126,1.0,10.0,79,0.00,,FEW,0.00,0.00,VWS V14.01,2013-06-21 05:37:00,
2013-06-21 01:38:00,82.2,75.0,30.05,SE,130,0.0,10.0,79,0.00,,FEW,0.00,0.00,VWS V14.01,2013-06-21 05:38:00,
2013-06-21 01:39:00,82.2,75.0,30.05,ENE,70,0.0,10.0,79,0.00,,FEW,0.00,0.00,VWS V14.01,2013-06-21 05:39:00,
2013-06-21 01:40:00,82.3,75.1,30.05,ENE,59,2.0,10.0,79,0.00,,FEW,0.00,0.00,VWS V14.01,2013-06-21 05:40:00,
2013-06-21 01:42:00,82.3,74.8,30.05,ESE,105,3.0,5.0,78,0.00,,FEW,0.00,0.00,VWS V14.01,2013-06-21 05:42:00,
2013-06-21 01:43:00,82.2,74.3,30.05,East,87,3.0,5.0,77,0.00,,FEW,0.00,0.00,VWS V14.01,2013-06-21 05:43:00,
2013-06-21 01:44:00,82.2,74.3,30.05,East,92,5.0,5.0,77,0.00,,FEW,0.00,0.00,VWS V14.01,2013-06-21 05:44:00,
2013-06-21 01:45:00,82.3,74.4,30.05,ESE,103,4.0,5.0,77,0.00,,FEW,0.00,0.00,VWS V14.01,2013-06-21 05:45:00,
2013-06-21 01:47:00,82.2,73.9,30.04,East,90,0.0,5.0,76,0.00,,FEW,0.00,0.00,VWS V14.01,2013-06-21 05:47:00,
2013-06-21 01:48:00,82.3,74.0,30.04,East,90,0.0,5.0,76,0.00,,FEW,0.00,0.00,VWS V14.01,2013-06-21 05:48:00,
2013-06-21 01:49:00,82.2,73.9,30.04,ESE,103,1.0,5.0,76,0.00,,FEW,0.00,0.00,VWS V14.01,2013-06-21 05:49:00,
2013-06-21 01:50:00,82.2,73.9,30.04,East,96,1.0,5.0,76,0.00,,FEW,0.00,0.00,VWS V14.01,2013-06-21 05:50:00,
2013-06-21 01:52:00,82.3,74.0,30.04,ESE,119,3.0,3.0,76,0.00,,FEW,0.00,0.00,VWS V14.01,2013-06-21 05:52:00,
2013-06-21 01:53:00,82.3,73.6,30.04,ESE,103,0.0,5.0,75,0.00,,FEW,0.00,0.00,VWS V14.01,2013-06-21 05:53:00,
2013-06-21 01:54:00,82.3,73.6,30.04,ESE,107,1.0,5.0,75,0.00,,FEW,0.00,0.00,VWS V14.01,2013-06-21 05:54:00,
2013-06-21 01:55:00,82.3,73.6,30.04,ESE,119,1.0,5.0,75,0.00,,FEW,0.00,0.00,VWS V14.01,2013-06-21 05:55:00,
2013-06-21 01:57:00,82.3,74.0,30.04,SE,126,2.0,5.0,76,0.00,,FEW,0.00,0.00,VWS V14.01,2013-06-21 05:57:00,
2013-06-21 01:59:00,82.4,74.1,30.04,SE,139,2.0,6.0,76,0.00,,FEW,0.00,0.00,VWS V14.01,2013-06-21 05:59:00,
2013-06-21 02:00:00,82.4,74.1,30.04,SE,129,3.0,6.0,76,0.00,,FEW,0.00,0.00,VWS V14.01,2013-06-21 06:00:00,
2013-06-21 02:03:00,82.3,73.2,30.04,SE,132,2.0,3.0,74,0.00,,FEW,0.00,0.00,VWS V14.01,2013-06-21 06:03:00,
2013-06-21 02:04:00,82.3,73.2,30.04,SE,142,6.0,6.0,74,0.00,,FEW,0.00,0.00,VWS V14.01,2013-06-21 06:04:00,
2013-06-21 02:05:00,82.3,73.2,30.04,SSE,149,1.0,6.0,74,0.00,,FEW,0.00,0.00,VWS V14.01,2013-06-21 06:05:00,
2013-06-21 02:06:00,82.3,73.2,30.04,SE,138,2.0,6.0,74,0.00,,FEW,0.00,0.00,VWS V14.01,2013-06-21 06:06:00,
2013-06-21 02:08:00,82.4,73.3,30.04,ESE,122,2.0,6.0,74,0.00,,FEW,0.00,0.00,VWS V14.01,2013-06-21 06:08:00,
2013-06-21 02:09:00,82.4,73.3,30.04,SE,133,2.0,6.0,74,0.00,,FEW,0.00,0.00,VWS V14.01,2013-06-21 06:09:00,
2013-06-21 02:10:00,82.5,73.8,30.04,ESE,123,0.0,6.0,75,0.00,,FEW,0.00,0.00,VWS V14.01,2013-06-21 06:10:00,
2013-06-21 02:11:00,82.5,73.8,30.04,ESE,117,2.0,6.0,75,0.00,,FEW,0.00,0.00,VWS V14.01,2013-06-21 06:11:00,
2013-06-21 02:13:00,82.6,74.3,30.04,SSE,148,2.0,3.0,76,0.00,,FEW,0.00,0.00,VWS V14.01,2013-06-21 06:13:00,
2013-06-21 02:14:00,82.7,74.8,30.04,ESE,119,1.0,3.0,77,0.00,,FEW,0.00,0.00,VWS V14.01,2013-06-21 06:14:00,
2013-06-21 02:15:00,82.8,74.9,30.04,NE,46,1.0,3.0,77,0.00,,FEW,0.00,0.00,VWS V14.01,2013-06-21 06:15:00,
2013-06-21 02:16:00,82.7,74.8,30.04,NE,46,0.0,3.0,77,0.00,,FEW,0.00,0.00,VWS V14.01,2013-06-21 06:16:00,
2013-06-21 02:18:00,82.9,75.3,30.03,ESE,105,1.0,3.0,78,0.00,,FEW,0.00,0.00,VWS V14.01,2013-06-21 06:18:00,
2013-06-21 02:19:00,83.0,75.8,30.03,SE,128,1.0,3.0,79,0.00,,FEW,0.00,0.00,VWS V14.01,2013-06-21 06:19:00,
2013-06-21 02:20:00,83.0,76.2,30.03,SE,139,2.0,4.0,80,0.00,,FEW,0.00,0.00,VWS V14.01,2013-06-21 06:20:00,
2013-06-21 02:21:00,83.0,76.2,30.03,ESE,123,1.0,4.0,80,0.00,,FEW,0.00,0.00,VWS V14.01,2013-06-21 06:21:00,
2013-06-21 02:23:00,83.1,76.3,30.03,SE,138,3.0,4.0,80,0.00,,FEW,0.00,0.00,VWS V14.01,2013-06-21 06:23:00,
2013-06-21 02:24:00,83.1,76.3,30.03,East,94,1.0,4.0,80,0.00,,FEW,0.00,0.00,VWS V14.01,2013-06-21 06:24:00,
2013-06-21 02:26:00,83.1,76.7,30.03,SE,131,1.0,4.0,81,0.00,,FEW,0.00,0.00,VWS V14.01,2013-06-21 06:26:00,
2013-06-21 02:27:00,83.1,76.7,30.03,SE,145,3.0,4.0,81,0.00,,FEW,0.00,0.00,VWS V14.01,2013-06-21 06:27:00,
2013-06-21 02:28:00,83.1,76.7,30.03,East,101,0.0,4.0,81,0.00,,FEW,0.00,0.00,VWS V14.01,2013-06-21 06:28:00,
2013-06-21 02:29:00,83.1,76.7,30.03,NE,43,2.0,4.0,81,0.00,,FEW,0.00,0.00,VWS V14.01,2013-06-21 06:29:00,
2013-06-21 02:30:00,83.1,76.7,30.03,ESE,108,3.0,4.0,81,0.00,,FEW,0.00,0.00,VWS V14.01,2013-06-21 06:30:00,
2013-06-21 02:31:00,83.1,76.7,30.03,ESE,108,3.0,4.0,81,0.00,,FEW,0.00,0.00,VWS V14.01,2013-06-21 06:31:00,
2013-06-21 02:32:00,83.1,76.7,30.03,ESE,111,1.0,3.0,81,0.00,,FEW,0.00,0.00,VWS V14.01,2013-06-21 06:32:00,
2013-06-21 02:33:00,83.1,77.0,30.03,East,80,0.0,3.0,82,0.00,,FEW,0.00,0.00,VWS V14.01,2013-06-21 06:33:00,
2013-06-21 02:34:00,83.1,77.0,30.03,ESE,102,2.0,3.0,82,0.00,,FEW,0.00,0.00,VWS V14.01,2013-06-21 06:34:00,
2013-06-21 02:36:00,83.0,76.9,30.03,SE,140,2.0,3.0,82,0.00,,FEW,0.00,0.00,VWS V14.01,2013-06-21 06:36:00,
2013-06-21 02:37:00,83.0,76.9,30.03,ESE,111,0.0,3.0,82,0.00,,FEW,0.00,0.00,VWS V14.01,2013-06-21 06:37:00,
2013-06-21 02:38:00,83.0,76.9,30.03,ESE,121,3.0,3.0,82,0.00,,FEW,0.00,0.00,VWS V14.01,2013-06-21 06:38:00,
2013-06-21 02:40:00,83.0,76.9,30.03,ESE,121,3.0,6.0,82,0.00,,FEW,0.00,0.00,VWS V14.01,2013-06-21 06:40:00,
2013-06-21 02:41:00,82.9,76.8,30.03,ESE,119,2.0,6.0,82,0.00,,FEW,0.00,0.00,VWS V14.01,2013-06-21 06:41:00,
2013-06-21 02:42:00,82.9,76.8,30.03,ESE,104,4.0,4.0,82,0.00,,FEW,0.00,0.00,VWS V14.01,2013-06-21 06:42:00,
2013-06-21 02:43:00,82.8,76.8,30.03,East,101,2.0,5.0,82,0.00,,FEW,0.00,0.00,VWS V14.01,2013-06-21 06:43:00,
2013-06-21 02:45:00,82.8,76.8,30.03,SE,140,1.0,5.0,82,0.00,,FEW,0.00,0.00,VWS V14.01,2013-06-21 06:45:00,
2013-06-21 02:47:00,82.8,77.1,30.03,SE,143,3.0,5.0,83,0.00,,FEW,0.00,0.00,VWS V14.01,2013-06-21 06:47:00,
2013-06-21 02:48:00,82.7,77.0,30.03,SE,127,4.0,8.0,83,0.00,,FEW,0.00,0.00,VWS V14.01,2013-06-21 06:48:00,
2013-06-21 02:50:00,82.7,77.0,30.03,SE,144,5.0,8.0,83,0.00,,FEW,0.00,0.00,VWS V14.01,2013-06-21 06:50:00,
2013-06-21 02:52:00,82.7,77.0,30.03,ESE,115,1.0,1.0,83,0.00,,FEW,0.00,0.00,VWS V14.01,2013-06-21 06:52:00,
2013-06-21 02:53:00,82.7,77.0,30.03,ESE,119,2.0,2.0,83,0.00,,FEW,0.00,0.00,VWS V14.01,2013-06-21 06:53:00,
2013-06-21 02:54:00,82.7,77.0,30.03,ESE,122,1.0,6.0,83,0.00,,FEW,0.00,0.00,VWS V14.01,2013-06-21 06:54:00,
2013-06-21 02:56:00,82.8,77.5,30.03,ESE,115,1.0,6.0,84,0.00,,FEW,0.00,0.00,VWS V14.01,2013-06-21 06:56:00,
2013-06-21 02:57:00,82.8,77.5,30.03,NE,40,2.0,6.0,84,0.00,,FEW,0.00,0.00,VWS V14.01,2013-06-21 06:57:00,
2013-06-21 02:58:00,82.8,77.1,30.03,ENE,61,4.0,6.0,83,0.00,,FEW,0.00,0.00,VWS V14.01,2013-06-21 06:58:00,
2013-06-21 03:00:00,82.7,77.0,30.03,ENE,78,1.0,6.0,83,0.00,,FEW,0.00,0.00,VWS V14.01,2013-06-21 07:00:00,
2013-06-21 03:01:00,82.7,77.0,30.02,NE,49,4.0,6.0,83,0.00,,FEW,0.00,0.00,VWS V14.01,2013-06-21 07:01:00,
2013-06-21 03:02:00,82.7,77.0,30.02,ESE,103,2.0,2.0,83,0.00,,FEW,0.00,0.00,VWS V14.01,2013-06-21 07:02:00,
2013-06-21 03:03:00,82.7,77.0,30.02,ESE,108,0.0,3.0,83,0.00,,FEW,0.00,0.00,VWS V14.01,2013-06-21 07:03:00,
2013-06-21 03:05:00,82.7,77.4,30.02,ENE,67,2.0,5.0,84,0.00,,FEW,0.00,0.00,VWS V14.01,2013-06-21 07:05:00,
2013-06-21 03:06:00,82.7,77.4,30.02,SE,126,2.0,5.0,84,0.00,,FEW,0.00,0.00,VWS V14.01,2013-06-21 07:06:00,
2013-06-21 03:07:00,82.7,77.0,30.02,SE,132,1.0,7.0,83,0.00,,FEW,0.00,0.00,VWS V14.01,2013-06-21 07:07:00,
2013-06-21 03:08:00,82.6,76.9,30.02,SE,140,4.0,8.0,83,0.00,,FEW,0.00,0.00,VWS V14.01,2013-06-21 07:08:00,
2013-06-21 03:10:00,82.5,76.4,30.02,ESE,111,2.0,8.0,82,0.00,,FEW,0.00,0.00,VWS V14.01,2013-06-21 07:10:00,
2013-06-21 03:11:00,82.5,76.4,30.02,ESE,113,4.0,8.0,82,0.00,,FEW,0.00,0.00,VWS V14.01,2013-06-21 07:11:00,
2013-06-21 03:12:00,82.4,76.4,30.02,SE,138,6.0,6.0,82,0.00,,FEW,0.00,0.00,VWS V14.01,2013-06-21 07:12:00,
2013-06-21 03:13:00,82.4,76.0,30.02,ESE,120,8.0,10.0,81,0.00,,FEW,0.00,0.00,VWS V14.01,2013-06-21 07:13:00,
2013-06-21 03:15:00,82.4,76.0,30.02,East,101,3.0,10.0,81,0.00,,FEW,0.00,0.00,VWS V14.01,2013-06-21 07:15:00,
2013-06-21 03:16:00,82.4,76.0,30.02,ESE,104,2.0,10.0,81,0.00,,FEW,0.00,0.00,VWS V14.01,2013-06-21 07:16:00,
2013-06-21 03:17:00,82.4,75.6,30.02,SE,144,6.0,11.0,80,0.00,,FEW,0.00,0.00,VWS V14.01,2013-06-21 07:17:00,
2013-06-21 03:19:00,82.5,75.7,30.02,SE,143,4.0,11.0,80,0.00,,FEW,0.00,0.00,VWS V14.01,2013-06-21 07:19:00,
2013-06-21 03:20:00,82.5,75.7,30.02,SSE,156,3.0,11.0,80,0.00,,FEW,0.00,0.00,VWS V14.01,2013-06-21 07:20:00,
2013-06-21 03:21:00,82.6,75.8,30.02,SE,134,8.0,11.0,80,0.00,,FEW,0.00,0.00,VWS V14.01,2013-06-21 07:21:00,
2013-06-21 03:22:00,82.6,75.8,30.02,East,88,5.0,9.0,80,0.00,,FEW,0.00,0.00,VWS V14.01,2013-06-21 07:22:00,
2013-06-21 03:24:00,82.6,75.8,30.02,ESE,107,3.0,9.0,80,0.00,,FEW,0.00,0.00,VWS V14.01,2013-06-21 07:24:00,
2013-06-21 03:25:00,82.6,75.8,30.02,ESE,122,3.0,9.0,80,0.00,,FEW,0.00,0.00,VWS V14.01,2013-06-21 07:25:00,
2013-06-21 03:26:00,82.6,75.4,30.02,SE,130,5.0,9.0,79,0.00,,FEW,0.00,0.00,VWS V14.01,2013-06-21 07:26:00,
2013-06-21 03:27:00,82.6,75.4,30.02,SE,139,1.0,9.0,79,0.00,,FEW,0.00,0.00,VWS V14.01,2013-06-21 07:27:00,
2013-06-21 03:29:00,82.7,75.5,30.02,NE,39,1.0,9.0,79,0.00,,FEW,0.00,0.00,VWS V14.01,2013-06-21 07:29:00,
2013-06-21 03:30:00,82.7,75.5,30.02,East,88,1.0,9.0,79,0.00,,FEW,0.00,0.00,VWS V14.01,2013-06-21 07:30:00,
2013-06-21 03:31:00,82.7,75.5,30.02,East,89,1.0,9.0,79,0.00,,FEW,0.00,0.00,VWS V14.01,2013-06-21 07:31:00,
2013-06-21 03:32:00,82.7,75.5,30.02,SE,141,2.0,5.0,79,0.00,,FEW,0.00,0.00,VWS V14.01,2013-06-21 07:32:00,
2013-06-21 03:34:00,82.8,75.6,30.02,SE,140,4.0,7.0,79,0.00,,FEW,0.00,0.00,VWS V14.01,2013-06-21 07:34:00,
2013-06-21 03:35:00,82.8,75.6,30.02,SE,126,4.0,7.0,79,0.00,,FEW,0.00,0.00,VWS V14.01,2013-06-21 07:35:00,
2013-06-21 03:36:00,82.8,75.6,30.02,ESE,118,4.0,8.0,79,0.00,,FEW,0.00,0.00,VWS V14.01,2013-06-21 07:36:00,
2013-06-21 03:37:00,82.8,75.6,30.02,ESE,121,5.0,9.0,79,0.00,,FEW,0.00,0.00,VWS V14.01,2013-06-21 07:37:00,
2013-06-21 03:38:00,82.8,75.6,30.02,SE,136,6.0,9.0,79,0.00,,FEW,0.00,0.00,VWS V14.01,2013-06-21 07:38:00,
2013-06-21 03:39:00,82.8,75.2,30.02,ENE,75,2.0,10.0,78,0.00,,FEW,0.00,0.00,VWS V14.01,2013-06-21 07:39:00,
2013-06-21 03:40:00,82.8,75.2,30.02,SSE,161,8.0,10.0,78,0.00,,FEW,0.00,0.00,VWS V14.01,2013-06-21 07:40:00,
2013-06-21 03:41:00,82.9,75.3,30.02,SE,134,7.0,10.0,78,0.00,,FEW,0.00,0.00,VWS V14.01,2013-06-21 07:41:00,
2013-06-21 03:43:00,82.9,75.3,30.02,SSE,158,4.0,10.0,78,0.00,,FEW,0.00,0.00,VWS V14.01,2013-06-21 07:43:00,
2013-06-21 03:44:00,82.9,75.3,30.02,East,86,1.0,10.0,78,0.00,,FEW,0.00,0.00,VWS V14.01,2013-06-21 07:44:00,
2013-06-21 03:46:00,82.9,75.3,30.02,ENE,74,4.0,10.0,78,0.00,,FEW,0.00,0.00,VWS V14.01,2013-06-21 07:46:00,
2013-06-21 03:48:00,83.0,75.4,30.02,ESE,105,5.0,10.0,78,0.00,,FEW,0.00,0.00,VWS V14.01,2013-06-21 07:48:00,
2013-06-21 03:49:00,83.0,75.4,30.02,ESE,115,2.0,10.0,78,0.00,,FEW,0.00,0.00,VWS V14.01,2013-06-21 07:49:00,
2013-06-21 03:50:00,83.0,75.4,30.02,East,98,3.0,10.0,78,0.00,,FEW,0.00,0.00,VWS V14.01,2013-06-21 07:50:00,
2013-06-21 03:51:00,83.0,75.8,30.02,East,93,3.0,10.0,79,0.00,,FEW,0.00,0.00,VWS V14.01,2013-06-21 07:51:00,
2013-06-21 03:52:00,83.0,75.4,30.02,SSE,158,7.0,7.0,78,0.00,,FEW,0.00,0.00,VWS V14.01,2013-06-21 07:52:00,
2013-06-21 03:53:00,83.0,75.4,30.02,SE,135,6.0,11.0,78,0.00,,FEW,0.00,0.00,VWS V14.01,2013-06-21 07:53:00,
2013-06-21 03:55:00,82.9,75.3,30.02,SE,136,2.0,11.0,78,0.00,,FEW,0.00,0.00,VWS V14.01,2013-06-21 07:55:00,
2013-06-21 03:56:00,82.9,75.3,30.02,ESE,116,7.0,11.0,78,0.00,,FEW,0.00,0.00,VWS V14.01,2013-06-21 07:56:00,
2013-06-21 03:57:00,82.9,75.3,30.02,ESE,118,3.0,11.0,78,0.00,,FEW,0.00,0.00,VWS V14.01,2013-06-21 07:57:00,
2013-06-21 03:58:00,82.9,75.3,30.02,SE,144,4.0,11.0,78,0.00,,FEW,0.00,0.00,VWS V14.01,2013-06-21 07:58:00,
2013-06-21 04:00:00,83.0,75.4,30.02,SSE,153,4.0,11.0,78,0.00,,FEW,0.00,0.00,VWS V14.01,2013-06-21 08:00:00,
2013-06-21 04:01:00,83.0,75.4,30.02,East,90,6.0,11.0,78,0.00,,FEW,0.00,0.00,VWS V14.01,2013-06-21 08:01:00,
2013-06-21 04:02:00,83.0,75.4,30.02,SE,141,4.0,8.0,78,0.00,,FEW,0.00,0.00,VWS V14.01,2013-06-21 08:02:00,
2013-06-21 04:03:00,83.0,75.4,30.02,SSE,167,4.0,8.0,78,0.00,,FEW,0.00,0.00,VWS V14.01,2013-06-21 08:03:00,
2013-06-21 04:05:00,83.0,75.4,30.02,SSE,160,9.0,9.0,78,0.00,,FEW,0.00,0.00,VWS V14.01,2013-06-21 08:05:00,
2013-06-21 04:06:00,83.0,75.4,30.02,SE,133,3.0,9.0,78,0.00,,FEW,0.00,0.00,VWS V14.01,2013-06-21 08:06:00,
2013-06-21 04:08:00,83.0,75.4,30.02,ESE,122,5.0,9.0,78,0.00,,FEW,0.00,0.00,VWS V14.01,2013-06-21 08:08:00,
2013-06-21 04:10:00,83.0,75.4,30.02,SSE,158,5.0,9.0,78,0.00,,FEW,0.00,0.00,VWS V14.01,2013-06-21 08:10:00,
2013-06-21 04:11:00,83.0,75.4,30.02,SE,128,4.0,9.0,78,0.00,,FEW,0.00,0.00,VWS V14.01,2013-06-21 08:11:00,
2013-06-21 04:13:00,83.0,75.4,30.02,SE,138,5.0,9.0,78,0.00,,FEW,0.00,0.00,VWS V14.01,2013-06-21 08:13:00,
2013-06-21 04:16:00,83.0,75.4,30.02,SE,144,8.0,9.0,78,0.00,,FEW,0.00,0.00,VWS V14.01,2013-06-21 08:16:00,
2013-06-21 04:17:00,83.0,75.4,30.02,SE,135,4.0,9.0,78,0.00,,FEW,0.00,0.00,VWS V14.01,2013-06-21 08:17:00,
2013-06-21 04:18:00,83.0,75.4,30.02,East,86,1.0,9.0,78,0.00,,FEW,0.00,0.00,VWS V14.01,2013-06-21 08:18:00,
2013-06-21 04:20:00,83.0,75.8,30.02,SSE,147,4.0,9.0,79,0.00,,FEW,0.00,0.00,VWS V14.01,2013-06-21 08:20:00,
2013-06-21 04:21:00,83.0,75.8,30.02,ESE,104,0.0,9.0,79,0.00,,FEW,0.00,0.00,VWS V14.01,2013-06-21 08:21:00,
2013-06-21 04:23:00,83.0,75.8,30.02,SE,126,0.0,6.0,79,0.00,,FEW,0.00,0.00,VWS V14.01,2013-06-21 08:23:00,
2013-06-21 04:26:00,83.0,75.8,30.02,SE,132,4.0,7.0,79,0.00,,FEW,0.00,0.00,VWS V14.01,2013-06-21 08:26:00,
2013-06-21 04:28:00,82.9,75.7,30.02,SE,141,2.0,7.0,79,0.00,,FEW,0.00,0.00,VWS V14.01,2013-06-21 08:28:00,
2013-06-21 04:29:00,82.9,75.7,30.02,SE,140,3.0,7.0,79,0.00,,FEW,0.00,0.00,VWS V14.01,2013-06-21 08:29:00,
2013-06-21 04:30:00,82.8,75.2,30.02,East,92,7.0,9.0,78,0.00,,FEW,0.00,0.00,VWS V14.01,2013-06-21 08:30:00,
2013-06-21 04:31:00,82.8,75.2,30.02,SSW,193,4.0,9.0,78,0.00,,FEW,0.00,0.00,VWS V14.01,2013-06-21 08:31:00,
2013-06-21 04:33:00,82.7,75.2,30.02,East,97,10.0,10.0,78,0.00,,FEW,0.00,0.00,VWS V14.01,2013-06-21 08:33:00,
2013-06-21 04:34:00,82.7,75.2,30.02,East,91,1.0,10.0,78,0.00,,FEW,0.00,0.00,VWS V14.01,2013-06-21 08:34:00,
2013-06-21 04:36:00,82.7,75.5,30.02,SE,139,6.0,10.0,79,0.00,,FEW,0.00,0.00,VWS V14.01,2013-06-21 08:36:00,
2013-06-21 04:38:00,82.8,75.6,30.02,ESE,117,5.0,10.0,79,0.00,,FEW,0.00,0.00,VWS V14.01,2013-06-21 08:38:00,
2013-06-21 04:39:00,82.8,75.6,30.02,East,91,5.0,10.0,79,0.00,,FEW,0.00,0.00,VWS V14.01,2013-06-21 08:39:00,
2013-06-21 04:40:00,82.8,75.6,30.02,SE,129,4.0,10.0,79,0.00,,FEW,0.00,0.00,VWS V14.01,2013-06-21 08:40:00,
2013-06-21 04:41:00,82.8,75.6,30.02,SE,144,6.0,10.0,79,0.00,,FEW,0.00,0.00,VWS V14.01,2013-06-21 08:41:00,
2013-06-21 04:43:00,82.8,75.6,30.02,ENE,70,5.0,10.0,79,0.00,,FEW,0.00,0.00,VWS V14.01,2013-06-21 08:43:00,
2013-06-21 04:44:00,82.8,75.6,30.02,ENE,71,0.0,10.0,79,0.00,,FEW,0.00,0.00,VWS V14.01,2013-06-21 08:44:00,
2013-06-21 04:46:00,82.7,75.2,30.01,ESE,122,3.0,10.0,78,0.00,,FEW,0.00,0.00,VWS V14.01,2013-06-21 08:46:00,
2013-06-21 04:48:00,82.7,75.2,30.01,ESE,108,8.0,10.0,78,0.00,,FEW,0.00,0.00,VWS V14.01,2013-06-21 08:48:00,
2013-06-21 04:49:00,82.7,75.2,30.01,East,98,6.0,10.0,78,0.00,,FEW,0.00,0.00,VWS V14.01,2013-06-21 08:49:00,
2013-06-21 04:50:00,82.6,74.7,30.01,SE,132,2.0,10.0,77,0.00,,FEW,0.00,0.00,VWS V14.01,2013-06-21 08:50:00,
2013-06-21 04:52:00,82.6,74.7,30.01,SE,132,8.0,8.0,77,0.00,,FEW,0.00,0.00,VWS V14.01,2013-06-21 08:52:00,
2013-06-21 04:54:00,82.6,74.7,30.01,ESE,106,2.0,8.0,77,0.00,,FEW,0.00,0.00,VWS V14.01,2013-06-21 08:54:00,
2013-06-21 04:55:00,82.6,75.1,30.01,East,101,3.0,9.0,78,0.00,,FEW,0.00,0.00,VWS V14.01,2013-06-21 08:55:00,
2013-06-21 04:57:00,82.6,74.7,30.01,SSE,162,4.0,9.0,77,0.00,,FEW,0.00,0.00,VWS V14.01,2013-06-21 08:57:00,
2013-06-21 04:59:00,82.7,74.8,30.01,SE,126,4.0,9.0,77,0.00,,FEW,0.00,0.00,VWS V14.01,2013-06-21 08:59:00,
2013-06-21 05:00:00,82.7,74.8,30.01,SSE,156,7.0,9.0,77,0.00,,FEW,0.00,0.00,VWS V14.01,2013-06-21 09:00:00,
2013-06-21 05:02:00,82.6,74.7,30.01,South,181,8.0,8.0,77,0.00,,FEW,0.00,0.00,VWS V14.01,2013-06-21 09:02:00,
2013-06-21 05:04:00,82.7,74.4,30.01,SE,130,7.0,12.0,76,0.00,,FEW,0.00,0.00,VWS V14.01,2013-06-21 09:04:00,
2013-06-21 05:05:00,82.6,74.3,30.01,ESE,122,3.0,12.0,76,0.00,,FEW,0.00,0.00,VWS V14.01,2013-06-21 09:05:00,
2013-06-21 05:07:00,82.7,74.8,30.01,SE,139,6.0,12.0,77,0.00,,FEW,0.00,0.00,VWS V14.01,2013-06-21 09:07:00,
2013-06-21 05:09:00,82.8,74.9,30.01,SE,139,7.0,12.0,77,0.00,,FEW,0.00,0.00,VWS V14.01,2013-06-21 09:09:00,
2013-06-21 05:10:00,82.8,74.9,30.01,SE,138,6.0,12.0,77,0.00,,FEW,0.00,0.00,VWS V14.01,2013-06-21 09:10:00,
2013-06-21 05:12:00,82.8,74.9,30.01,ESE,117,7.0,7.0,77,0.00,,FEW,0.00,0.00,VWS V14.01,2013-06-21 09:12:00,
2013-06-21 05:15:00,82.8,74.9,30.01,ESE,123,3.0,7.0,77,0.00,,FEW,0.00,0.00,VWS V14.01,2013-06-21 09:15:00,
2013-06-21 05:17:00,82.8,75.2,30.00,SE,133,7.0,7.0,78,0.00,,FEW,0.00,0.00,VWS V14.01,2013-06-21 09:17:00,
2013-06-21 05:20:00,82.7,74.8,30.00,East,98,5.0,8.0,77,0.00,,FEW,0.00,0.00,VWS V14.01,2013-06-21 09:20:00,
2013-06-21 05:22:00,82.7,74.8,30.00,ESE,105,3.0,7.0,77,0.00,,FEW,0.00,0.00,VWS V14.01,2013-06-21 09:22:00,
2013-06-21 05:25:00,82.7,74.8,30.00,SSE,161,4.0,7.0,77,0.00,,FEW,0.00,0.00,VWS V14.01,2013-06-21 09:25:00,
2013-06-21 05:27:00,82.7,74.8,30.00,ESE,110,9.0,9.0,77,0.00,,FEW,0.00,0.00,VWS V14.01,2013-06-21 09:27:00,
2013-06-21 05:30:00,82.7,74.8,30.00,ESE,106,5.0,9.0,77,0.00,,FEW,0.00,0.00,VWS V14.01,2013-06-21 09:30:00,
2013-06-21 05:33:00,82.7,75.2,30.01,SSE,155,4.0,6.0,78,0.00,,FEW,0.00,0.00,VWS V14.01,2013-06-21 09:33:00,
2013-06-21 05:35:00,82.8,75.2,30.01,SE,133,5.0,7.0,78,0.00,,FEW,0.00,0.00,VWS V14.01,2013-06-21 09:35:00,
2013-06-21 05:38:00,82.7,75.2,30.01,SE,130,2.0,8.0,78,0.00,,FEW,0.00,0.00,VWS V14.01,2013-06-21 09:38:00,
2013-06-21 05:40:00,82.8,75.2,30.01,SE,128,3.0,8.0,78,0.00,,FEW,0.00,0.00,VWS V14.01,2013-06-21 09:40:00,
2013-06-21 05:41:00,82.8,75.2,30.01,SE,143,7.0,8.0,78,0.00,,FEW,0.00,0.00,VWS V14.01,2013-06-21 09:41:00,
2013-06-21 05:43:00,82.8,75.2,30.01,SE,138,4.0,5.0,78,0.00,,FEW,0.00,0.00,VWS V14.01,2013-06-21 09:43:00,
2013-06-21 05:45:00,82.8,75.6,30.01,SE,140,3.0,5.0,79,0.00,,FEW,0.00,0.00,VWS V14.01,2013-06-21 09:45:00,
2013-06-21 05:46:00,82.8,75.6,30.01,SE,140,2.0,5.0,79,0.00,,FEW,0.00,0.00,VWS V14.01,2013-06-21 09:46:00,
2013-06-21 05:48:00,82.8,75.6,30.01,ESE,121,3.0,7.0,79,0.00,,FEW,0.00,0.00,VWS V14.01,2013-06-21 09:48:00,
2013-06-21 05:50:00,82.8,75.6,30.01,SE,126,4.0,12.0,79,0.00,,FEW,0.00,0.00,VWS V14.01,2013-06-21 09:50:00,
2013-06-21 05:51:00,82.8,75.6,30.01,SE,134,5.0,12.0,79,0.00,,FEW,0.00,0.00,VWS V14.01,2013-06-21 09:51:00,
2013-06-21 05:53:00,82.7,75.5,30.01,ESE,115,7.0,9.0,79,0.00,,FEW,0.00,0.00,VWS V14.01,2013-06-21 09:53:00,
2013-06-21 05:56:00,82.7,75.5,30.01,SE,132,4.0,9.0,79,0.00,,FEW,0.00,0.00,VWS V14.01,2013-06-21 09:56:00,
2013-06-21 05:57:00,82.7,75.5,30.01,SSE,157,4.0,9.0,79,0.00,,FEW,0.00,0.00,VWS V14.01,2013-06-21 09:57:00,
2013-06-21 05:58:00,82.6,75.4,30.01,ESE,112,4.0,9.0,79,0.00,,FEW,0.00,0.00,VWS V14.01,2013-06-21 09:58:00,
2013-06-21 06:00:00,82.7,75.5,30.01,SE,134,3.0,9.0,79,0.00,,FEW,0.00,0.00,VWS V14.01,2013-06-21 10:00:00,
2013-06-21 06:01:00,82.7,75.5,30.01,East,79,6.0,9.0,79,0.00,,FEW,0.00,0.00,VWS V14.01,2013-06-21 10:01:00,
2013-06-21 06:02:00,82.7,75.5,30.01,SSE,156,5.0,5.0,79,0.00,,FEW,0.00,0.00,VWS V14.01,2013-06-21 10:02:00,
2013-06-21 06:03:00,82.6,75.4,30.01,East,92,0.0,8.0,79,0.00,,FEW,0.00,0.00,VWS V14.01,2013-06-21 10:03:00,
2013-06-21 06:06:00,82.6,75.4,30.01,SSE,147,2.0,8.0,79,0.00,,FEW,0.00,0.00,VWS V14.01,2013-06-21 10:06:00,
2013-06-21 06:07:00,82.6,75.4,30.01,SE,136,4.0,8.0,79,0.00,,FEW,0.00,0.00,VWS V14.01,2013-06-21 10:07:00,
2013-06-21 06:08:00,82.6,75.4,30.01,SE,142,5.0,11.0,79,0.00,,FEW,0.00,0.00,VWS V14.01,2013-06-21 10:08:00,
2013-06-21 06:10:00,82.5,75.3,30.01,ESE,106,4.0,11.0,79,0.00,,FEW,0.00,0.00,VWS V14.01,2013-06-21 10:10:00,
2013-06-21 06:11:00,82.5,75.3,30.01,ESE,106,4.0,11.0,79,0.00,,FEW,0.00,0.00,VWS V14.01,2013-06-21 10:11:00,
2013-06-21 06:12:00,82.5,75.3,30.01,ESE,115,8.0,8.0,79,0.00,,FEW,0.00,0.00,VWS V14.01,2013-06-21 10:12:00,
2013-06-21 06:14:00,82.5,75.3,30.01,ESE,112,2.0,8.0,79,0.00,,FEW,0.00,0.00,VWS V14.01,2013-06-21 10:14:00,
2013-06-21 06:16:00,82.5,75.3,30.01,East,88,3.0,9.0,79,0.00,,FEW,0.00,0.00,VWS V14.01,2013-06-21 10:16:00,
2013-06-21 06:17:00,82.5,75.3,30.01,ESE,108,3.0,9.0,79,0.00,,FEW,0.00,0.00,VWS V14.01,2013-06-21 10:17:00,
2013-06-21 06:19:00,82.6,75.4,30.01,SE,136,3.0,9.0,79,0.00,,FEW,0.00,0.00,VWS V14.01,2013-06-21 10:19:00,
2013-06-21 06:20:00,82.6,75.4,30.01,SSE,152,7.0,10.0,79,0.00,,FEW,0.00,0.00,VWS V14.01,2013-06-21 10:20:00,
2013-06-21 06:22:00,82.6,75.4,30.01,SE,144,5.0,7.0,79,0.00,,FEW,0.00,0.00,VWS V14.01,2013-06-21 10:22:00,
2013-06-21 06:24:00,82.6,75.8,30.01,SE,145,3.0,7.0,80,0.00,,FEW,0.00,0.00,VWS V14.01,2013-06-21 10:24:00,
2013-06-21 06:27:00,82.7,75.9,30.01,ESE,111,1.0,7.0,80,0.00,,FEW,0.00,0.00,VWS V14.01,2013-06-21 10:27:00,
2013-06-21 06:29:00,82.7,76.3,30.01,ENE,78,1.0,7.0,81,0.00,,FEW,0.00,0.00,VWS V14.01,2013-06-21 10:29:00,
2013-06-21 06:30:00,82.8,76.4,30.02,East,86,1.0,7.0,81,0.00,,FEW,0.00,0.00,VWS V14.01,2013-06-21 10:30:00,
2013-06-21 06:32:00,82.8,76.4,30.02,ESE,115,4.0,4.0,81,0.00,,FEW,0.00,0.00,VWS V14.01,2013-06-21 10:32:00,
2013-06-21 06:34:00,82.7,76.3,30.02,ESE,110,0.0,8.0,81,0.00,,FEW,0.00,0.00,VWS V14.01,2013-06-21 10:34:00,
2013-06-21 06:37:00,82.6,76.2,30.02,ESE,104,2.0,8.0,81,0.00,,FEW,0.00,0.00,VWS V14.01,2013-06-21 10:37:00,
2013-06-21 06:39:00,82.6,76.2,30.02,East,98,1.0,9.0,81,0.00,,FEW,0.00,0.00,VWS V14.01,2013-06-21 10:39:00,
2013-06-21 06:40:00,82.6,76.2,30.02,SE,132,3.0,9.0,81,0.00,,FEW,0.00,5.00,VWS V14.01,2013-06-21 10:40:00,
2013-06-21 06:42:00,82.6,76.2,30.02,SE,126,2.0,6.0,81,0.00,,FEW,0.00,7.00,VWS V14.01,2013-06-21 10:42:00,
2013-06-21 06:44:00,82.5,76.1,30.02,SE,128,4.0,8.0,81,0.00,,FEW,0.00,7.00,VWS V14.01,2013-06-21 10:44:00,
2013-06-21 06:47:00,82.4,75.6,30.02,NE,54,1.0,8.0,80,0.00,,FEW,0.00,11.00,VWS V14.01,2013-06-21 10:47:00,
2013-06-21 06:49:00,82.3,75.5,30.02,ESE,109,4.0,8.0,80,0.00,,FEW,0.00,12.00,VWS V14.01,2013-06-21 10:49:00,
2013-06-21 06:50:00,82.3,75.5,30.02,ESE,120,4.0,8.0,80,0.00,,FEW,0.00,14.00,VWS V14.01,2013-06-21 10:50:00,
2013-06-21 06:52:00,82.3,75.5,30.02,ESE,109,3.0,4.0,80,0.00,,FEW,0.00,14.00,VWS V14.01,2013-06-21 10:52:00,
2013-06-21 06:54:00,82.2,75.4,30.02,ESE,122,4.0,5.0,80,0.00,,FEW,0.00,16.00,VWS V14.01,2013-06-21 10:54:00,
2013-06-21 06:57:00,82.2,75.0,30.02,SSE,148,7.0,11.0,79,0.00,,FEW,0.00,19.00,VWS V14.01,2013-06-21 10:57:00,
2013-06-21 06:59:00,82.2,75.0,30.02,ESE,121,1.0,11.0,79,0.00,,FEW,0.00,21.00,VWS V14.01,2013-06-21 10:59:00,
2013-06-21 07:00:00,82.2,75.0,30.02,SE,142,6.0,11.0,79,0.00,,FEW,0.00,25.00,VWS V14.01,2013-06-21 11:00:00,
2013-06-21 07:02:00,82.2,75.0,30.02,ESE,102,4.0,7.0,79,0.00,,FEW,0.00,26.00,VWS V14.01,2013-06-21 11:02:00,
2013-06-21 07:03:00,82.2,75.0,30.02,SSE,154,5.0,7.0,79,0.00,,FEW,0.00,26.00,VWS V14.01,2013-06-21 11:03:00,
2013-06-21 07:04:00,82.3,75.1,30.02,ESE,109,3.0,10.0,79,0.00,,FEW,0.00,28.00,VWS V14.01,2013-06-21 11:04:00,
2013-06-21 07:07:00,82.3,75.1,30.02,ESE,121,3.0,10.0,79,0.00,,FEW,0.00,30.00,VWS V14.01,2013-06-21 11:07:00,
2013-06-21 07:08:00,82.3,75.1,30.02,SSE,153,4.0,10.0,79,0.00,,FEW,0.00,32.00,VWS V14.01,2013-06-21 11:08:00,
2013-06-21 07:09:00,82.4,75.2,30.02,SE,125,1.0,10.0,79,0.00,,FEW,0.00,32.00,VWS V14.01,2013-06-21 11:09:00,
2013-06-21 07:10:00,82.4,75.2,30.02,SE,138,2.0,10.0,79,0.00,,FEW,0.00,33.00,VWS V14.01,2013-06-21 11:10:00,
2013-06-21 07:12:00,82.4,75.2,30.02,East,96,2.0,4.0,79,0.00,,FEW,0.00,35.00,VWS V14.01,2013-06-21 11:12:00,
2013-06-21 07:13:00,82.4,75.2,30.02,ESE,107,4.0,6.0,79,0.00,,FEW,0.00,35.00,VWS V14.01,2013-06-21 11:13:00,
2013-06-21 07:14:00,82.4,74.9,30.02,ENE,71,2.0,8.0,78,0.00,,FEW,0.00,37.00,VWS V14.01,2013-06-21 11:14:00,
2013-06-21 07:18:00,82.5,74.9,30.02,ESE,103,2.0,8.0,78,0.00,,FEW,0.00,40.00,VWS V14.01,2013-06-21 11:18:00,
2013-06-21 07:19:00,82.5,74.9,30.02,East,94,7.0,9.0,78,0.00,,FEW,0.00,42.00,VWS V14.01,2013-06-21 11:19:00,
2013-06-21 07:20:00,82.5,74.9,30.02,ESE,113,3.0,9.0,78,0.00,,FEW,0.00,47.00,VWS V14.01,2013-06-21 11:20:00,
2013-06-21 07:23:00,82.5,74.9,30.02,SE,135,3.0,6.0,78,0.00,,FEW,0.00,47.00,VWS V14.01,2013-06-21 11:23:00,
2013-06-21 07:24:00,82.6,75.1,30.02,SSE,154,4.0,6.0,78,0.00,,FEW,0.00,49.00,VWS V14.01,2013-06-21 11:24:00,
2013-06-21 07:28:00,82.7,75.2,30.02,SE,132,4.0,7.0,78,0.00,,FEW,0.00,53.00,VWS V14.01,2013-06-21 11:28:00,
2013-06-21 07:29:00,82.7,75.2,30.02,ESE,114,9.0,9.0,78,0.00,,FEW,0.00,53.00,VWS V14.01,2013-06-21 11:29:00,
2013-06-21 07:30:00,82.7,75.2,30.02,SSE,154,5.0,9.0,78,0.00,,FEW,0.00,54.00,VWS V14.01,2013-06-21 11:30:00,
2013-06-21 07:33:00,82.7,75.2,30.03,SE,126,4.0,7.0,78,0.00,,FEW,0.00,58.00,VWS V14.01,2013-06-21 11:33:00,
2013-06-21 07:34:00,82.7,74.8,30.03,East,101,3.0,9.0,77,0.00,,FEW,0.00,60.00,VWS V14.01,2013-06-21 11:34:00,
2013-06-21 07:35:00,82.7,74.8,30.03,ESE,121,4.0,9.0,77,0.00,,FEW,0.00,62.00,VWS V14.01,2013-06-21 11:35:00,
2013-06-21 07:38:00,82.8,74.9,30.03,ESE,113,7.0,9.0,77,0.00,,FEW,0.00,63.00,VWS V14.01,2013-06-21 11:38:00,
2013-06-21 07:39:00,82.8,74.5,30.03,ESE,121,9.0,9.0,76,0.00,,FEW,0.00,65.00,VWS V14.01,2013-06-21 11:39:00,
2013-06-21 07:40:00,82.9,74.9,30.03,ESE,123,3.0,9.0,77,0.00,,FEW,0.00,65.00,VWS V14.01,2013-06-21 11:40:00,
2013-06-21 07:43:00,82.9,74.6,30.03,SSE,165,4.0,11.0,76,0.00,,FEW,0.00,70.00,VWS V14.01,2013-06-21 11:43:00,
2013-06-21 07:44:00,82.9,74.6,30.03,SE,135,4.0,11.0,76,0.00,,FEW,0.00,70.00,VWS V14.01,2013-06-21 11:44:00,
2013-06-21 07:45:00,82.9,74.6,30.03,ESE,121,1.0,11.0,76,0.00,,FEW,0.00,74.00,VWS V14.01,2013-06-21 11:45:00,
2013-06-21 07:48:00,83.0,74.7,30.03,ENE,77,3.0,11.0,76,0.00,,FEW,0.00,79.00,VWS V14.01,2013-06-21 11:48:00,
2013-06-21 07:49:00,83.0,74.7,30.03,SSE,148,6.0,11.0,76,0.00,,FEW,0.00,79.00,VWS V14.01,2013-06-21 11:49:00,
2013-06-21 07:50:00,83.0,74.3,30.03,ESE,122,3.0,11.0,75,0.00,,FEW,0.00,86.00,VWS V14.01,2013-06-21 11:50:00,
2013-06-21 07:51:00,83.0,74.3,30.03,ESE,103,3.0,11.0,75,0.00,,FEW,0.00,84.00,VWS V14.01,2013-06-21 11:51:00,
2013-06-21 07:53:00,83.1,74.4,30.03,ESE,123,3.0,9.0,75,0.00,,FEW,0.00,91.00,VWS V14.01,2013-06-21 11:53:00,
2013-06-21 07:54:00,83.1,74.4,30.03,SE,137,3.0,9.0,75,0.00,,FEW,0.00,91.00,VWS V14.01,2013-06-21 11:54:00,
2013-06-21 07:56:00,83.2,74.5,30.03,East,92,3.0,9.0,75,0.00,,FEW,0.00,100.00,VWS V14.01,2013-06-21 11:56:00,
2013-06-21 07:59:00,83.2,74.5,30.03,ESE,117,5.0,9.0,75,0.00,,FEW,0.00,111.00,VWS V14.01,2013-06-21 11:59:00,
2013-06-21 08:00:00,83.3,74.6,30.04,SE,134,4.0,9.0,75,0.00,,FEW,0.00,121.00,VWS V14.01,2013-06-21 12:00:00,
2013-06-21 08:01:00,83.3,74.6,30.04,South,181,2.0,9.0,75,0.00,,FEW,0.00,118.00,VWS V14.01,2013-06-21 12:01:00,
2013-06-21 08:04:00,83.4,74.2,30.04,SE,136,4.0,7.0,74,0.00,,FEW,0.00,128.00,VWS V14.01,2013-06-21 12:04:00,
2013-06-21 08:06:00,83.6,74.8,30.04,SE,140,4.0,7.0,75,0.00,,FEW,0.00,137.00,VWS V14.01,2013-06-21 12:06:00,
2013-06-21 08:09:00,83.7,74.9,30.04,ESE,111,4.0,8.0,75,0.00,,FEW,0.00,144.00,VWS V14.01,2013-06-21 12:09:00,
2013-06-21 08:10:00,83.7,74.9,30.04,SE,137,5.0,8.0,75,0.00,,FEW,0.00,153.00,VWS V14.01,2013-06-21 12:10:00,
2013-06-21 08:11:00,83.8,75.0,30.04,SE,126,1.0,8.0,75,0.00,,FEW,0.00,158.00,VWS V14.01,2013-06-21 12:11:00,
2013-06-21 08:14:00,83.9,75.5,30.04,ESE,111,4.0,6.0,76,0.00,,FEW,0.00,169.00,VWS V14.01,2013-06-21 12:14:00,
2013-06-21 08:15:00,84.0,75.2,30.04,ENE,73,5.0,8.0,75,0.00,,FEW,0.00,171.00,VWS V14.01,2013-06-21 12:15:00,
2013-06-21 08:17:00,84.0,75.2,30.05,ESE,103,5.0,12.0,75,0.00,,FEW,0.00,179.00,VWS V14.01,2013-06-21 12:17:00,
2013-06-21 08:20:00,84.0,74.8,30.05,SE,135,3.0,12.0,74,0.00,,FEW,0.00,182.00,VWS V14.01,2013-06-21 12:20:00,
2013-06-21 08:30:00,84.3,75.1,30.05,ESE,112,3.0,8.0,74,0.00,,FEW,0.00,221.00,VWS V14.01,2013-06-21 12:30:00,
2013-06-21 08:40:00,84.8,75.2,30.05,SE,135,3.0,9.0,73,0.00,,FEW,0.00,267.00,VWS V14.01,2013-06-21 12:40:00,
2013-06-21 08:50:00,85.0,75.0,30.05,SE,135,4.0,10.0,72,0.00,,FEW,0.00,304.00,VWS V14.01,2013-06-21 12:50:00,
2013-06-21 09:00:00,85.1,74.6,30.05,ESE,112,4.0,9.0,71,0.00,,FEW,0.00,338.00,VWS V14.01,2013-06-21 13:00:00,
2013-06-21 09:10:00,85.4,74.9,30.05,SE,135,4.0,9.0,71,0.00,,FEW,0.00,372.00,VWS V14.01,2013-06-21 13:10:00,
2013-06-21 09:20:00,85.7,75.2,30.06,SE,135,4.0,9.0,71,0.00,,FEW,0.00,408.00,VWS V14.01,2013-06-21 13:20:00,
2013-06-21 09:30:00,86.2,75.7,30.06,SE,135,3.0,8.0,71,0.00,,FEW,0.00,439.00,VWS V14.01,2013-06-21 13:30:00,
2013-06-21 09:40:00,86.6,75.7,30.06,SE,135,3.0,8.0,70,0.00,,FEW,0.00,472.00,VWS V14.01,2013-06-21 13:40:00,
2013-06-21 09:50:00,87.0,75.6,30.06,SE,135,3.0,7.0,69,0.00,,FEW,0.00,503.00,VWS V14.01,2013-06-21 13:50:00,
2013-06-21 10:00:00,87.5,75.6,30.07,SE,135,4.0,9.0,68,0.00,,FEW,0.00,537.00,VWS V14.01,2013-06-21 14:00:00,
2013-06-21 10:10:00,87.7,76.3,30.07,SE,135,3.0,8.0,69,0.00,,FEW,0.00,569.00,VWS V14.01,2013-06-21 14:10:00,
2013-06-21 10:20:00,88.4,75.1,30.07,SE,135,2.0,8.0,65,0.00,,FEW,0.00,603.00,VWS V14.01,2013-06-21 14:20:00,
2013-06-21 10:30:00,88.6,76.2,30.07,SE,135,3.0,8.0,67,0.00,,FEW,0.00,634.00,VWS V14.01,2013-06-21 14:30:00,
2013-06-21 10:40:00,88.7,75.9,30.07,ESE,112,2.0,7.0,66,0.00,,FEW,0.00,661.00,VWS V14.01,2013-06-21 14:40:00,
2013-06-21 10:50:00,88.7,76.8,30.08,East,90,2.0,4.0,68,0.00,,FEW,0.00,696.00,VWS V14.01,2013-06-21 14:50:00,
2013-06-21 11:00:00,88.8,76.0,30.08,ESE,112,2.0,8.0,66,0.00,,FEW,0.00,721.00,VWS V14.01,2013-06-21 15:00:00,
2013-06-21 11:10:00,88.8,75.5,30.08,ESE,112,2.0,7.0,65,0.00,,FEW,0.00,742.00,VWS V14.01,2013-06-21 15:10:00,
2013-06-21 11:20:00,88.7,75.9,30.08,SE,135,2.0,6.0,66,0.00,,FEW,0.00,766.00,VWS V14.01,2013-06-21 15:20:00,
2013-06-21 11:30:00,89.0,76.6,30.08,ESE,112,2.0,7.0,67,0.00,,FEW,0.00,786.00,VWS V14.01,2013-06-21 15:30:00,
2013-06-21 11:40:00,89.6,76.3,30.08,ENE,68,2.0,7.0,65,0.00,,FEW,0.00,805.00,VWS V14.01,2013-06-21 15:40:00,
2013-06-21 11:50:00,90.3,77.4,30.09,ESE,112,2.0,7.0,66,0.00,,FEW,0.00,828.00,VWS V14.01,2013-06-21 15:50:00,
2013-06-21 12:00:00,90.2,76.8,30.09,ESE,112,2.0,7.0,65,0.00,,FEW,0.00,838.00,VWS V14.01,2013-06-21 16:00:00,
2013-06-21 12:10:00,90.1,76.3,30.09,SE,135,3.0,8.0,64,0.00,,FEW,0.00,856.00,VWS V14.01,2013-06-21 16:10:00,
2013-06-21 12:20:00,89.8,76.5,30.09,ENE,68,3.0,9.0,65,0.00,,FEW,0.00,870.00,VWS V14.01,2013-06-21 16:20:00,
2013-06-21 12:30:00,90.3,76.0,30.09,NE,45,3.0,10.0,63,0.00,,FEW,0.00,881.00,VWS V14.01,2013-06-21 16:30:00,
2013-06-21 12:40:00,89.8,76.0,30.09,ENE,68,3.0,8.0,64,0.00,,FEW,0.00,906.00,VWS V14.01,2013-06-21 16:40:00,
2013-06-21 12:50:00,89.8,76.5,30.09,ESE,112,2.0,7.0,65,0.00,,FEW,0.00,913.00,VWS V14.01,2013-06-21 16:50:00,
2013-06-21 13:00:00,90.0,76.2,30.08,ENE,68,3.0,8.0,64,0.00,,FEW,0.00,940.00,VWS V14.01,2013-06-21 17:00:00,
2013-06-21 13:10:00,90.8,75.5,30.08,ESE,112,2.0,7.0,61,0.00,,FEW,0.00,954.00,VWS V14.01,2013-06-21 17:10:00,
2013-06-21 13:20:00,91.1,76.3,30.08,ENE,68,2.0,7.0,62,0.00,,FEW,0.00,929.00,VWS V14.01,2013-06-21 17:20:00,
2013-06-21 13:30:00,91.1,77.2,30.08,ESE,112,3.0,7.0,64,0.00,,FEW,0.00,932.00,VWS V14.01,2013-06-21 17:30:00,
2013-06-21 13:40:00,90.7,75.9,30.08,ESE,112,2.0,7.0,62,0.00,,FEW,0.00,935.00,VWS V14.01,2013-06-21 17:40:00,
2013-06-21 13:50:00,90.4,76.6,30.08,ESE,112,3.0,8.0,64,0.00,,FEW,0.00,933.00,VWS V14.01,2013-06-21 17:50:00,
2013-06-21 14:00:00,90.4,77.0,30.08,ESE,112,3.0,7.0,65,0.00,,FEW,0.00,937.00,VWS V14.01,2013-06-21 18:00:00,
2013-06-21 14:10:00,90.7,76.4,30.08,ESE,112,3.0,9.0,63,0.00,,FEW,0.00,936.00,VWS V14.01,2013-06-21 18:10:00,
2013-06-21 14:20:00,90.9,76.6,30.07,ENE,68,3.0,8.0,63,0.00,,FEW,0.00,959.00,VWS V14.01,2013-06-21 18:20:00,
2013-06-21 14:30:00,91.3,77.9,30.07,ENE,68,3.0,8.0,65,0.00,,FEW,0.00,959.00,VWS V14.01,2013-06-21 18:30:00,
2013-06-21 14:40:00,91.7,78.3,30.07,East,90,2.0,7.0,65,0.00,,FEW,0.00,255.00,VWS V14.01,2013-06-21 18:40:00,
2013-06-21 14:50:00,90.6,78.1,30.06,SE,135,3.0,11.0,67,0.00,,FEW,0.00,955.00,VWS V14.01,2013-06-21 18:50:00,
2013-06-21 15:00:00,90.9,78.0,30.06,ESE,112,3.0,11.0,66,0.00,,FEW,0.00,920.00,VWS V14.01,2013-06-21 19:00:00,
2013-06-21 15:10:00,90.7,77.3,30.06,ESE,112,3.0,9.0,65,0.00,,FEW,0.00,878.00,VWS V14.01,2013-06-21 19:10:00,
2013-06-21 15:20:00,90.7,77.3,30.06,ENE,68,3.0,7.0,65,0.00,,FEW,0.00,841.00,VWS V14.01,2013-06-21 19:20:00,
2013-06-21 15:30:00,91.1,77.7,30.05,ESE,112,2.0,5.0,65,0.00,,FEW,0.00,842.00,VWS V14.01,2013-06-21 19:30:00,
2013-06-21 15:50:00,91.1,77.7,30.05,ESE,112,0.0,2.0,65,0.00,,FEW,0.00,872.00,VWS V14.01,2013-06-21 19:50:00,
2013-06-21 15:52:00,91.1,77.7,30.05,ESE,112,2.0,5.0,65,0.00,,FEW,0.00,842.00,VWS V14.01,2013-06-21 19:52:00,
2013-06-21 15:57:00,90.8,77.4,30.05,ENE,71,3.0,8.0,65,0.00,,FEW,0.00,805.00,VWS V14.01,2013-06-21 19:57:00,
2013-06-21 16:02:00,91.1,78.2,30.05,ENE,59,2.0,2.0,66,0.00,,FEW,0.00,840.00,VWS V14.01,2013-06-21 20:02:00,
2013-06-21 16:04:00,91.3,78.3,30.05,East,88,9.0,9.0,66,0.00,,FEW,0.00,835.00,VWS V14.01,2013-06-21 20:04:00,
2013-06-21 16:07:00,91.1,77.7,30.05,ESE,105,1.0,9.0,65,0.00,,FEW,0.00,190.00,VWS V14.01,2013-06-21 20:07:00,
2013-06-21 16:08:00,91.0,77.6,30.05,ESE,115,1.0,9.0,65,0.00,,FEW,0.00,758.00,VWS V14.01,2013-06-21 20:08:00,
2013-06-21 16:11:00,90.5,77.6,30.05,ESE,121,3.0,9.0,66,0.00,,FEW,0.00,738.00,VWS V14.01,2013-06-21 20:11:00,
2013-06-21 16:12:00,90.6,77.7,30.05,ENE,66,2.0,7.0,66,0.00,,FEW,0.00,729.00,VWS V14.01,2013-06-21 20:12:00,
2013-06-21 16:13:00,90.5,77.6,30.05,ENE,61,3.0,7.0,66,0.00,,FEW,0.00,729.00,VWS V14.01,2013-06-21 20:13:00,
2013-06-21 16:17:00,90.2,76.8,30.05,SE,144,3.0,9.0,65,0.00,,FEW,0.00,726.00,VWS V14.01,2013-06-21 20:17:00,
2013-06-21 16:18:00,90.2,77.3,30.05,SSE,152,4.0,9.0,66,0.00,,FEW,0.00,726.00,VWS V14.01,2013-06-21 20:18:00,
2013-06-21 16:22:00,90.0,77.6,30.05,East,84,2.0,2.0,67,0.00,,FEW,0.00,701.00,VWS V14.01,2013-06-21 20:22:00,
2013-06-21 16:23:00,90.0,77.6,30.05,East,84,1.0,2.0,67,0.00,,FEW,0.00,701.00,VWS V14.01,2013-06-21 20:23:00,
2013-06-21 16:24:00,90.2,77.3,30.05,NE,51,3.0,7.0,66,0.00,,FEW,0.00,700.00,VWS V14.01,2013-06-21 20:24:00,
2013-06-21 16:27:00,90.6,77.2,30.05,South,188,3.0,7.0,65,0.00,,FEW,0.00,682.00,VWS V14.01,2013-06-21 20:27:00,
2013-06-21 16:28:00,90.6,77.2,30.05,South,188,3.0,7.0,65,0.00,,FEW,0.00,682.00,VWS V14.01,2013-06-21 20:28:00,
2013-06-21 16:29:00,90.6,77.2,30.05,NE,53,1.0,7.0,65,0.00,,FEW,0.00,680.00,VWS V14.01,2013-06-21 20:29:00,
2013-06-21 16:32:00,90.8,76.9,30.04,SE,142,3.0,7.0,64,0.00,,FEW,0.00,671.00,VWS V14.01,2013-06-21 20:32:00,
2013-06-21 16:33:00,90.8,76.9,30.04,East,99,3.0,7.0,64,0.00,,FEW,0.00,671.00,VWS V14.01,2013-06-21 20:33:00,
2013-06-21 16:34:00,90.8,77.4,30.04,NE,54,1.0,7.0,65,0.00,,FEW,0.00,673.00,VWS V14.01,2013-06-21 20:34:00,
2013-06-21 16:38:00,90.7,77.8,30.04,ENE,67,3.0,7.0,66,0.00,,FEW,0.00,663.00,VWS V14.01,2013-06-21 20:38:00,
2013-06-21 16:39:00,90.7,77.3,30.04,SE,137,1.0,7.0,65,0.00,,FEW,0.00,659.00,VWS V14.01,2013-06-21 20:39:00,
2013-06-21 16:43:00,90.4,77.0,30.04,SE,125,4.0,6.0,65,0.00,,FEW,0.00,640.00,VWS V14.01,2013-06-21 20:43:00,
2013-06-21 16:44:00,90.5,77.1,30.04,ESE,113,7.0,8.0,65,0.00,,FEW,0.00,642.00,VWS V14.01,2013-06-21 20:44:00,
2013-06-21 16:45:00,90.5,77.6,30.04,ESE,107,2.0,8.0,66,0.00,,FEW,0.00,645.00,VWS V14.01,2013-06-21 20:45:00,
2013-06-21 16:46:00,90.6,77.7,30.04,ESE,118,3.0,8.0,66,0.00,,FEW,0.00,643.00,VWS V14.01,2013-06-21 20:46:00,
2013-06-21 16:48:00,90.4,77.0,30.04,East,80,5.0,8.0,65,0.00,,FEW,0.00,628.00,VWS V14.01,2013-06-21 20:48:00,
2013-06-21 16:50:00,90.2,76.8,30.04,SE,145,3.0,8.0,65,0.00,,FEW,0.00,621.00,VWS V14.01,2013-06-21 20:50:00,
2013-06-21 16:51:00,90.1,76.8,30.04,East,101,2.0,8.0,65,0.00,,FEW,0.00,621.00,VWS V14.01,2013-06-21 20:51:00,
2013-06-21 16:53:00,90.0,77.1,30.04,East,84,2.0,5.0,66,0.00,,FEW,0.00,610.00,VWS V14.01,2013-06-21 20:53:00,
2013-06-21 16:55:00,89.8,76.5,30.04,SSE,166,1.0,5.0,65,0.00,,FEW,0.00,605.00,VWS V14.01,2013-06-21 20:55:00,
2013-06-21 16:56:00,89.8,76.9,30.04,ENE,65,1.0,5.0,66,0.00,,FEW,0.00,594.00,VWS V14.01,2013-06-21 20:56:00,
2013-06-21 16:58:00,90.2,76.8,30.04,ESE,123,4.0,5.0,65,0.00,,FEW,0.00,587.00,VWS V14.01,2013-06-21 20:58:00,
2013-06-21 17:00:00,90.2,76.8,30.04,ESE,106,3.0,5.0,65,0.00,,FEW,0.00,580.00,VWS V14.01,2013-06-21 21:00:00,
2013-06-21 17:01:00,90.0,76.2,30.03,ESE,111,1.0,7.0,64,0.00,,FEW,0.00,577.00,VWS V14.01,2013-06-21 21:01:00,
2013-06-21 17:04:00,89.8,76.0,30.03,ESE,112,1.0,7.0,64,0.00,,FEW,0.00,568.00,VWS V14.01,2013-06-21 21:04:00,
2013-06-21 17:05:00,89.7,76.4,30.03,ENE,78,2.0,7.0,65,0.00,,FEW,0.00,566.00,VWS V14.01,2013-06-21 21:05:00,
2013-06-21 17:09:00,89.5,76.7,30.03,ESE,107,4.0,7.0,66,0.00,,FEW,0.00,550.00,VWS V14.01,2013-06-21 21:09:00,
2013-06-21 17:10:00,89.5,76.2,30.03,East,84,1.0,7.0,65,0.00,,FEW,0.00,550.00,VWS V14.01,2013-06-21 21:10:00,
2013-06-21 17:11:00,89.5,76.2,30.03,SE,126,3.0,7.0,65,0.00,,FEW,0.00,547.00,VWS V14.01,2013-06-21 21:11:00,
2013-06-21 17:14:00,89.9,77.0,30.03,ENE,69,1.0,4.0,66,0.00,,FEW,0.00,536.00,VWS V14.01,2013-06-21 21:14:00,
2013-06-21 17:16:00,89.9,76.6,30.03,East,100,3.0,4.0,65,0.00,,FEW,0.00,529.00,VWS V14.01,2013-06-21 21:16:00,
2013-06-21 17:17:00,90.0,77.1,30.03,East,101,2.0,4.0,66,0.00,,FEW,0.00,526.00,VWS V14.01,2013-06-21 21:17:00,
2013-06-21 17:19:00,90.1,76.8,30.03,SSE,159,1.0,5.0,65,0.00,,FEW,0.00,524.00,VWS V14.01,2013-06-21 21:19:00,
2013-06-21 17:21:00,90.1,76.8,30.03,East,84,2.0,5.0,65,0.00,,FEW,0.00,522.00,VWS V14.01,2013-06-21 21:21:00,
2013-06-21 17:22:00,90.1,76.8,30.03,ESE,113,1.0,2.0,65,0.00,,FEW,0.00,519.00,VWS V14.01,2013-06-21 21:22:00,
2013-06-21 17:24:00,90.3,77.4,30.03,ENE,63,1.0,4.0,66,0.00,,FEW,0.00,510.00,VWS V14.01,2013-06-21 21:24:00,
2013-06-21 17:26:00,90.3,76.9,30.03,NE,47,1.0,5.0,65,0.00,,FEW,0.00,499.00,VWS V14.01,2013-06-21 21:26:00,
2013-06-21 17:27:00,90.3,76.9,30.03,East,90,3.0,5.0,65,0.00,,FEW,0.00,499.00,VWS V14.01,2013-06-21 21:27:00,
2013-06-21 17:29:00,90.0,76.7,30.03,ENE,67,2.0,5.0,65,0.00,,FEW,0.00,418.00,VWS V14.01,2013-06-21 21:29:00,
2013-06-21 17:30:00,90.0,76.7,30.03,SE,137,4.0,5.0,65,0.00,,FEW,0.00,418.00,VWS V14.01,2013-06-21 21:30:00,
2013-06-21 17:31:00,89.8,76.5,30.03,ESE,118,3.0,6.0,65,0.00,,FEW,0.00,483.00,VWS V14.01,2013-06-21 21:31:00,
2013-06-21 17:32:00,89.7,76.4,30.03,SE,128,1.0,2.0,65,0.00,,FEW,0.00,483.00,VWS V14.01,2013-06-21 21:32:00,
2013-06-21 17:34:00,89.6,76.7,30.03,ESE,106,1.0,6.0,66,0.00,,FEW,0.00,482.00,VWS V14.01,2013-06-21 21:34:00,
2013-06-21 17:35:00,89.6,76.7,30.03,East,94,2.0,6.0,66,0.00,,FEW,0.00,482.00,VWS V14.01,2013-06-21 21:35:00,
2013-06-21 17:36:00,89.7,76.8,30.03,ENE,75,1.0,6.0,66,0.00,,FEW,0.00,475.00,VWS V14.01,2013-06-21 21:36:00,
2013-06-21 17:37:00,89.7,76.4,30.03,East,92,1.0,6.0,65,0.00,,FEW,0.00,473.00,VWS V14.01,2013-06-21 21:37:00,
2013-06-21 17:40:00,89.5,76.2,30.03,ENE,72,1.0,8.0,65,0.00,,FEW,0.00,471.00,VWS V14.01,2013-06-21 21:40:00,
2013-06-21 17:41:00,89.4,76.6,30.03,East,93,2.0,8.0,66,0.00,,FEW,0.00,452.00,VWS V14.01,2013-06-21 21:41:00,
2013-06-21 17:42:00,89.4,76.6,30.03,East,79,7.0,7.0,66,0.00,,FEW,0.00,452.00,VWS V14.01,2013-06-21 21:42:00,
2013-06-21 17:43:00,89.4,76.6,30.03,SE,137,5.0,8.0,66,0.00,,FEW,0.00,450.00,VWS V14.01,2013-06-21 21:43:00,
2013-06-21 17:45:00,89.4,76.6,30.03,ENE,65,2.0,8.0,66,0.00,,FEW,0.00,439.00,VWS V14.01,2013-06-21 21:45:00,
2013-06-21 17:47:00,89.5,76.7,30.03,East,92,3.0,8.0,66,0.00,,FEW,0.00,434.00,VWS V14.01,2013-06-21 21:47:00,
2013-06-21 17:48:00,89.5,76.2,30.03,East,100,2.0,8.0,65,0.00,,FEW,0.00,434.00,VWS V14.01,2013-06-21 21:48:00,
2013-06-21 17:49:00,89.6,76.3,30.03,ENE,69,4.0,8.0,65,0.00,,FEW,0.00,420.00,VWS V14.01,2013-06-21 21:49:00,
2013-06-21 17:51:00,89.5,76.2,30.03,ESE,112,7.0,8.0,65,0.00,,FEW,0.00,417.00,VWS V14.01,2013-06-21 21:51:00,
2013-06-21 17:52:00,89.3,76.0,30.03,SE,140,3.0,6.0,65,0.00,,FEW,0.00,411.00,VWS V14.01,2013-06-21 21:52:00,
2013-06-21 17:53:00,89.3,76.0,30.03,ESE,123,2.0,6.0,65,0.00,,FEW,0.00,411.00,VWS V14.01,2013-06-21 21:53:00,
2013-06-21 17:54:00,89.2,75.9,30.03,East,98,1.0,6.0,65,0.00,,FEW,0.00,410.00,VWS V14.01,2013-06-21 21:54:00,
2013-06-21 17:56:00,89.1,75.8,30.03,ENE,63,2.0,6.0,65,0.00,,FEW,0.00,401.00,VWS V14.01,2013-06-21 21:56:00,
2013-06-21 17:58:00,89.2,76.8,30.03,SE,138,5.0,6.0,67,0.00,,FEW,0.00,390.00,VWS V14.01,2013-06-21 21:58:00,
2013-06-21 17:59:00,89.2,76.4,30.03,ESE,106,4.0,6.0,66,0.00,,FEW,0.00,388.00,VWS V14.01,2013-06-21 21:59:00,
2013-06-21 18:01:00,89.2,75.9,30.02,East,84,2.0,6.0,65,0.00,,FEW,0.00,380.00,VWS V14.01,2013-06-21 22:01:00,
2013-06-21 18:03:00,89.2,75.9,30.02,East,90,5.0,5.0,65,0.00,,FEW,0.00,373.00,VWS V14.01,2013-06-21 22:03:00,
2013-06-21 18:04:00,89.2,76.4,30.02,ENE,74,5.0,5.0,66,0.00,,FEW,0.00,371.00,VWS V14.01,2013-06-21 22:04:00,
2013-06-21 18:05:00,89.2,76.4,30.02,ENE,78,1.0,5.0,66,0.00,,FEW,0.00,367.00,VWS V14.01,2013-06-21 22:05:00,
2013-06-21 18:06:00,89.4,76.6,30.02,ENE,68,2.0,5.0,66,0.00,,FEW,0.00,359.00,VWS V14.01,2013-06-21 22:06:00,
2013-06-21 18:08:00,89.4,76.6,30.02,ENE,65,5.0,6.0,66,0.00,,FEW,0.00,355.00,VWS V14.01,2013-06-21 22:08:00,
2013-06-21 18:09:00,89.3,76.0,30.02,East,85,1.0,6.0,65,0.00,,FEW,0.00,352.00,VWS V14.01,2013-06-21 22:09:00,
2013-06-21 18:10:00,89.3,76.0,30.02,ESE,111,0.0,6.0,65,0.00,,FEW,0.00,350.00,VWS V14.01,2013-06-21 22:10:00,
2013-06-21 18:11:00,89.2,75.9,30.02,East,84,2.0,6.0,65,0.00,,FEW,0.00,345.00,VWS V14.01,2013-06-21 22:11:00,
2013-06-21 18:13:00,89.2,76.4,30.02,ENE,68,1.0,6.0,66,0.00,,FEW,0.00,338.00,VWS V14.01,2013-06-21 22:13:00,
2013-06-21 18:15:00,89.1,76.3,30.02,NE,54,0.0,6.0,66,0.00,,FEW,0.00,330.00,VWS V14.01,2013-06-21 22:15:00,
2013-06-21 18:17:00,89.1,76.3,30.02,ESE,105,2.0,6.0,66,0.00,,FEW,0.00,325.00,VWS V14.01,2013-06-21 22:17:00,
2013-06-21 18:18:00,89.0,75.7,30.02,East,94,0.0,6.0,65,0.00,,FEW,0.00,322.00,VWS V14.01,2013-06-21 22:18:00,
2013-06-21 18:19:00,89.0,75.7,30.02,East,92,0.0,6.0,65,0.00,,FEW,0.00,316.00,VWS V14.01,2013-06-21 22:19:00,
2013-06-21 18:20:00,89.1,76.3,30.02,ENE,67,1.0,6.0,66,0.00,,FEW,0.00,315.00,VWS V14.01,2013-06-21 22:20:00,
2013-06-21 18:21:00,89.1,76.3,30.02,ENE,76,1.0,6.0,66,0.00,,FEW,0.00,311.00,VWS V14.01,2013-06-21 22:21:00,
2013-06-21 18:22:00,89.2,76.4,30.02,East,83,2.0,5.0,66,0.00,,FEW,0.00,308.00,VWS V14.01,2013-06-21 22:22:00,
2013-06-21 18:24:00,89.2,75.9,30.02,ESE,114,2.0,5.0,65,0.00,,FEW,0.00,301.00,VWS V14.01,2013-06-21 22:24:00,
2013-06-21 18:25:00,89.2,76.4,30.02,ENE,64,3.0,5.0,66,0.00,,FEW,0.00,295.00,VWS V14.01,2013-06-21 22:25:00,
2013-06-21 18:26:00,89.2,76.4,30.02,ESE,106,2.0,6.0,66,0.00,,FEW,0.00,295.00,VWS V14.01,2013-06-21 22:26:00,
2013-06-21 18:27:00,89.2,75.9,30.02,East,86,3.0,6.0,65,0.00,,FEW,0.00,287.00,VWS V14.01,2013-06-21 22:27:00,
2013-06-21 18:29:00,89.2,75.9,30.02,ESE,118,1.0,6.0,65,0.00,,FEW,0.00,287.00,VWS V14.01,2013-06-21 22:29:00,
2013-06-21 18:30:00,89.2,75.9,30.02,NNE,24,1.0,6.0,65,0.00,,FEW,0.00,279.00,VWS V14.01,2013-06-21 22:30:00,
2013-06-21 18:31:00,89.2,75.9,30.03,NNE,24,1.0,6.0,65,0.00,,FEW,0.00,279.00,VWS V14.01,2013-06-21 22:31:00,
2013-06-21 18:32:00,89.2,76.4,30.03,ESE,111,4.0,4.0,66,0.00,,FEW,0.00,272.00,VWS V14.01,2013-06-21 22:32:00,
2013-06-21 18:34:00,89.0,75.7,30.03,ENE,61,0.0,5.0,65,0.00,,FEW,0.00,265.00,VWS V14.01,2013-06-21 22:34:00,
2013-06-21 18:35:00,89.0,76.2,30.03,NNE,23,3.0,7.0,66,0.00,,FEW,0.00,265.00,VWS V14.01,2013-06-21 22:35:00,
2013-06-21 18:36:00,89.0,75.7,30.03,ESE,102,2.0,7.0,65,0.00,,FEW,0.00,258.00,VWS V14.01,2013-06-21 22:36:00,
2013-06-21 18:37:00,89.0,76.2,30.03,East,79,5.0,7.0,66,0.00,,FEW,0.00,253.00,VWS V14.01,2013-06-21 22:37:00,
2013-06-21 18:39:00,88.8,75.5,30.03,ESE,104,3.0,7.0,65,0.00,,FEW,0.00,244.00,VWS V14.01,2013-06-21 22:39:00,
2013-06-21 18:40:00,88.8,76.0,30.03,ENE,73,1.0,7.0,66,0.00,,FEW,0.00,243.00,VWS V14.01,2013-06-21 22:40:00,
2013-06-21 18:41:00,88.8,76.0,30.03,ENE,73,1.0,7.0,66,0.00,,FEW,0.00,239.00,VWS V14.01,2013-06-21 22:41:00,
2013-06-21 18:43:00,88.8,76.0,30.03,East,98,2.0,5.0,66,0.00,,FEW,0.00,234.00,VWS V14.01,2013-06-21 22:43:00,
2013-06-21 18:44:00,88.8,76.4,30.03,ENE,61,2.0,5.0,67,0.00,,FEW,0.00,229.00,VWS V14.01,2013-06-21 22:44:00,
2013-06-21 18:46:00,88.8,76.4,30.03,NE,38,3.0,5.0,67,0.00,,FEW,0.00,223.00,VWS V14.01,2013-06-21 22:46:00,
2013-06-21 18:48:00,88.7,76.3,30.03,SE,145,5.0,5.0,67,0.00,,FEW,0.00,209.00,VWS V14.01,2013-06-21 22:48:00,
2013-06-21 18:49:00,88.7,76.3,30.03,ENE,66,2.0,5.0,67,0.00,,FEW,0.00,200.00,VWS V14.01,2013-06-21 22:49:00,
2013-06-21 18:51:00,88.6,76.2,30.03,East,85,1.0,5.0,67,0.00,,FEW,0.00,197.00,VWS V14.01,2013-06-21 22:51:00,
2013-06-21 18:53:00,88.5,76.2,30.03,NE,41,0.0,3.0,67,0.00,,FEW,0.00,179.00,VWS V14.01,2013-06-21 22:53:00,
2013-06-21 18:55:00,88.4,76.1,30.03,ENE,65,0.0,5.0,67,0.00,,FEW,0.00,167.00,VWS V14.01,2013-06-21 22:55:00,
2013-06-21 18:56:00,88.4,76.5,30.03,East,96,5.0,5.0,68,0.00,,FEW,0.00,165.00,VWS V14.01,2013-06-21 22:56:00,
2013-06-21 18:57:00,88.3,76.0,30.03,East,95,2.0,5.0,67,0.00,,FEW,0.00,163.00,VWS V14.01,2013-06-21 22:57:00,
2013-06-21 18:58:00,88.3,76.0,30.03,ENE,67,3.0,5.0,67,0.00,,FEW,0.00,162.00,VWS V14.01,2013-06-21 22:58:00,
2013-06-21 19:00:00,88.1,75.3,30.03,East,79,1.0,6.0,66,0.00,,FEW,0.00,151.00,VWS V14.01,2013-06-21 23:00:00,
2013-06-21 19:01:00,88.0,75.7,30.03,ENE,77,1.0,6.0,67,0.00,,FEW,0.00,146.00,VWS V14.01,2013-06-21 23:01:00,
2013-06-21 19:02:00,88.0,75.7,30.03,ESE,117,3.0,3.0,67,0.00,,FEW,0.00,146.00,VWS V14.01,2013-06-21 23:02:00,
2013-06-21 19:03:00,87.9,76.0,30.03,ENE,57,2.0,6.0,68,0.00,,FEW,0.00,141.00,VWS V14.01,2013-06-21 23:03:00,
2013-06-21 19:05:00,87.7,75.4,30.03,East,96,3.0,6.0,67,0.00,,FEW,0.00,135.00,VWS V14.01,2013-06-21 23:05:00,
2013-06-21 19:06:00,87.5,75.6,30.03,ESE,105,2.0,6.0,68,0.00,,FEW,0.00,134.00,VWS V14.01,2013-06-21 23:06:00,
2013-06-21 19:07:00,87.5,75.6,30.03,ESE,109,3.0,6.0,68,0.00,,FEW,0.00,134.00,VWS V14.01,2013-06-21 23:07:00,
2013-06-21 19:08:00,87.3,75.4,30.03,ENE,62,1.0,6.0,68,0.00,,FEW,0.00,132.00,VWS V14.01,2013-06-21 23:08:00,
2013-06-21 19:10:00,87.2,75.8,30.03,ESE,112,3.0,6.0,69,0.00,,FEW,0.00,130.00,VWS V14.01,2013-06-21 23:10:00,
2013-06-21 19:11:00,87.2,75.8,30.03,NE,55,3.0,6.0,69,0.00,,FEW,0.00,125.00,VWS V14.01,2013-06-21 23:11:00,
2013-06-21 19:12:00,87.2,75.8,30.03,East,84,5.0,5.0,69,0.00,,FEW,0.00,118.00,VWS V14.01,2013-06-21 23:12:00,
2013-06-21 19:13:00,87.1,76.1,30.03,ESE,118,4.0,5.0,70,0.00,,FEW,0.00,118.00,VWS V14.01,2013-06-21 23:13:00,
2013-06-21 19:15:00,87.0,75.6,30.03,ENE,61,3.0,5.0,69,0.00,,FEW,0.00,111.00,VWS V14.01,2013-06-21 23:15:00,
2013-06-21 19:16:00,86.8,75.4,30.04,ENE,73,2.0,5.0,69,0.00,,FEW,0.00,100.00,VWS V14.01,2013-06-21 23:16:00,
2013-06-21 19:17:00,86.8,75.4,30.04,ESE,105,2.0,5.0,69,0.00,,FEW,0.00,100.00,VWS V14.01,2013-06-21 23:17:00,
2013-06-21 19:18:00,86.7,75.3,30.04,ESE,119,2.0,5.0,69,0.00,,FEW,0.00,97.00,VWS V14.01,2013-06-21 23:18:00,
2013-06-21 19:20:00,86.6,75.7,30.04,East,101,1.0,5.0,70,0.00,,FEW,0.00,86.00,VWS V14.01,2013-06-21 23:20:00,
2013-06-21 19:21:00,86.6,75.7,30.04,ENE,69,3.0,5.0,70,0.00,,FEW,0.00,83.00,VWS V14.01,2013-06-21 23:21:00,
2013-06-21 19:22:00,86.5,76.0,30.04,East,82,2.0,3.0,71,0.00,,FEW,0.00,83.00,VWS V14.01,2013-06-21 23:22:00,
2013-06-21 19:23:00,86.4,75.9,30.04,NE,48,2.0,3.0,71,0.00,,FEW,0.00,76.00,VWS V14.01,2013-06-21 23:23:00,
2013-06-21 19:25:00,86.3,75.8,30.04,ENE,59,4.0,4.0,71,0.00,,FEW,0.00,74.00,VWS V14.01,2013-06-21 23:25:00,
2013-06-21 19:26:00,86.2,75.7,30.04,NE,52,5.0,5.0,71,0.00,,FEW,0.00,79.00,VWS V14.01,2013-06-21 23:26:00,
2013-06-21 19:27:00,86.1,75.6,30.04,ENE,69,2.0,5.0,71,0.00,,FEW,0.00,83.00,VWS V14.01,2013-06-21 23:27:00,
2013-06-21 19:28:00,86.1,75.6,30.04,ENE,74,1.0,5.0,71,0.00,,FEW,0.00,84.00,VWS V14.01,2013-06-21 23:28:00,
2013-06-21 19:30:00,86.0,75.5,30.04,East,101,1.0,5.0,71,0.00,,FEW,0.00,81.00,VWS V14.01,2013-06-21 23:30:00,
2013-06-21 19:31:00,85.9,75.4,30.04,NE,44,3.0,5.0,71,0.00,,FEW,0.00,79.00,VWS V14.01,2013-06-21 23:31:00,
2013-06-21 19:32:00,85.9,75.8,30.04,ENE,72,2.0,2.0,72,0.00,,FEW,0.00,76.00,VWS V14.01,2013-06-21 23:32:00,
2013-06-21 19:33:00,85.8,75.7,30.04,East,89,1.0,6.0,72,0.00,,FEW,0.00,72.00,VWS V14.01,2013-06-21 23:33:00,
2013-06-21 19:35:00,85.7,75.6,30.04,East,88,0.0,6.0,72,0.00,,FEW,0.00,69.00,VWS V14.01,2013-06-21 23:35:00,
2013-06-21 19:37:00,85.7,75.6,30.04,SE,130,5.0,6.0,72,0.00,,FEW,0.00,65.00,VWS V14.01,2013-06-21 23:37:00,
2013-06-21 19:38:00,85.6,75.5,30.04,ENE,75,1.0,6.0,72,0.00,,FEW,0.00,62.00,VWS V14.01,2013-06-21 23:38:00,
2013-06-21 19:40:00,85.5,75.4,30.04,East,81,1.0,6.0,72,0.00,,FEW,0.00,58.00,VWS V14.01,2013-06-21 23:40:00,
2013-06-21 19:42:00,85.5,75.9,30.04,East,90,3.0,3.0,73,0.00,,FEW,0.00,54.00,VWS V14.01,2013-06-21 23:42:00,
2013-06-21 19:44:00,85.4,75.8,30.04,ENE,74,1.0,3.0,73,0.00,,FEW,0.00,51.00,VWS V14.01,2013-06-21 23:44:00,
2013-06-21 19:45:00,85.4,75.8,30.04,ENE,72,3.0,7.0,73,0.00,,FEW,0.00,46.00,VWS V14.01,2013-06-21 23:45:00,
2013-06-21 19:47:00,85.2,75.6,30.05,East,98,2.0,7.0,73,0.00,,FEW,0.00,44.00,VWS V14.01,2013-06-21 23:47:00,
2013-06-21 19:49:00,85.1,75.5,30.05,NE,53,2.0,7.0,73,0.00,,FEW,0.00,39.00,VWS V14.01,2013-06-21 23:49:00,
2013-06-21 19:51:00,85.0,75.4,30.05,East,87,2.0,7.0,73,0.00,,FEW,0.00,33.00,VWS V14.01,2013-06-21 23:51:00,
2013-06-21 19:52:00,84.9,75.3,30.05,ENE,62,2.0,3.0,73,0.00,,FEW,0.00,32.00,VWS V14.01,2013-06-21 23:52:00,
2013-06-21 19:54:00,84.8,75.6,30.05,East,84,0.0,5.0,74,0.00,,FEW,0.00,28.00,VWS V14.01,2013-06-21 23:54:00,
2013-06-21 19:56:00,84.8,75.6,30.05,ENE,61,2.0,5.0,74,0.00,,FEW,0.00,25.00,VWS V14.01,2013-06-21 23:56:00,
2013-06-21 19:57:00,84.8,75.6,30.05,ENE,68,2.0,5.0,74,0.00,,FEW,0.00,23.00,VWS V14.01,2013-06-21 23:57:00,
2013-06-21 19:58:00,84.8,75.6,30.05,ENE,65,2.0,5.0,74,0.00,,FEW,0.00,21.00,VWS V14.01,2013-06-21 23:58:00,
2013-06-21 19:59:00,84.7,75.5,30.05,East,85,2.0,7.0,74,0.00,,FEW,0.00,19.00,VWS V14.01,2013-06-21 23:59:00,
2013-06-21 20:01:00,84.6,75.4,30.05,ENE,69,1.0,8.0,74,0.00,,FEW,0.00,16.00,VWS V14.01,2013-06-22 00:01:00,
2013-06-21 20:02:00,84.6,75.8,30.05,NE,49,2.0,2.0,75,0.00,,FEW,0.00,16.00,VWS V14.01,2013-06-22 00:02:00,
2013-06-21 20:03:00,84.5,75.7,30.05,NE,54,1.0,2.0,75,0.00,,FEW,0.00,14.00,VWS V14.01,2013-06-22 00:03:00,
2013-06-21 20:04:00,84.5,75.7,30.05,ENE,60,1.0,4.0,75,0.00,,FEW,0.00,11.00,VWS V14.01,2013-06-22 00:04:00,
2013-06-21 20:06:00,84.5,75.7,30.05,ENE,66,1.0,4.0,75,0.00,,FEW,0.00,11.00,VWS V14.01,2013-06-22 00:06:00,
2013-06-21 20:07:00,84.4,75.6,30.05,East,89,3.0,7.0,75,0.00,,FEW,0.00,11.00,VWS V14.01,2013-06-22 00:07:00,
2013-06-21 20:08:00,84.4,75.6,30.05,ESE,113,3.0,7.0,75,0.00,,FEW,0.00,9.00,VWS V14.01,2013-06-22 00:08:00,
2013-06-21 20:09:00,84.2,75.4,30.05,ESE,119,1.0,7.0,75,0.00,,FEW,0.00,9.00,VWS V14.01,2013-06-22 00:09:00,
2013-06-21 20:10:00,84.2,75.4,30.05,ESE,119,1.0,7.0,75,0.00,,FEW,0.00,9.00,VWS V14.01,2013-06-22 00:10:00,
2013-06-21 20:11:00,84.1,75.3,30.05,East,91,1.0,7.0,75,0.00,,FEW,0.00,7.00,VWS V14.01,2013-06-22 00:11:00,
2013-06-21 20:12:00,84.1,75.3,30.05,ESE,119,3.0,5.0,75,0.00,,FEW,0.00,5.00,VWS V14.01,2013-06-22 00:12:00,
2013-06-21 20:13:00,84.0,75.2,30.05,ESE,110,1.0,5.0,75,0.00,,FEW,0.00,5.00,VWS V14.01,2013-06-22 00:13:00,
2013-06-21 20:14:00,84.0,75.2,30.05,East,94,1.0,5.0,75,0.00,,FEW,0.00,5.00,VWS V14.01,2013-06-22 00:14:00,
2013-06-21 20:15:00,83.9,75.1,30.05,East,82,3.0,7.0,75,0.00,,FEW,0.00,0.00,VWS V14.01,2013-06-22 00:15:00,
2013-06-21 20:16:00,83.9,75.5,30.05,East,83,6.0,7.0,76,0.00,,FEW,0.00,0.00,VWS V14.01,2013-06-22 00:16:00,
2013-06-21 20:17:00,83.9,75.5,30.05,ENE,71,3.0,7.0,76,0.00,,FEW,0.00,0.00,VWS V14.01,2013-06-22 00:17:00,
2013-06-21 20:18:00,83.9,75.5,30.05,ENE,70,2.0,7.0,76,0.00,,FEW,0.00,0.00,VWS V14.01,2013-06-22 00:18:00,
2013-06-21 20:19:00,83.8,75.4,30.05,ENE,76,5.0,7.0,76,0.00,,FEW,0.00,0.00,VWS V14.01,2013-06-22 00:19:00,
2013-06-21 20:20:00,83.8,75.4,30.05,ESE,113,2.0,7.0,76,0.00,,FEW,0.00,0.00,VWS V14.01,2013-06-22 00:20:00,
2013-06-21 20:21:00,83.8,75.4,30.05,NNE,25,3.0,7.0,76,0.00,,FEW,0.00,0.00,VWS V14.01,2013-06-22 00:21:00,
2013-06-21 20:22:00,83.7,75.3,30.05,East,80,2.0,5.0,76,0.00,,FEW,0.00,0.00,VWS V14.01,2013-06-22 00:22:00,
2013-06-21 20:23:00,83.7,75.3,30.05,SSE,156,2.0,5.0,76,0.00,,FEW,0.00,0.00,VWS V14.01,2013-06-22 00:23:00,
2013-06-21 20:25:00,83.7,75.7,30.05,ENE,66,1.0,6.0,77,0.00,,FEW,0.00,0.00,VWS V14.01,2013-06-22 00:25:00,
2013-06-21 20:26:00,83.7,75.7,30.05,ENE,76,1.0,6.0,77,0.00,,FEW,0.00,0.00,VWS V14.01,2013-06-22 00:26:00,
2013-06-21 20:27:00,83.7,75.7,30.05,East,81,1.0,6.0,77,0.00,,FEW,0.00,0.00,VWS V14.01,2013-06-22 00:27:00,
2013-06-21 20:28:00,83.6,75.6,30.05,East,88,2.0,6.0,77,0.00,,FEW,0.00,0.00,VWS V14.01,2013-06-22 00:28:00,
2013-06-21 20:30:00,83.6,75.6,30.05,East,92,2.0,6.0,77,0.00,,FEW,0.00,0.00,VWS V14.01,2013-06-22 00:30:00,
2013-06-21 20:32:00,83.5,75.1,30.06,NE,48,3.0,3.0,76,0.00,,FEW,0.00,0.00,VWS V14.01,2013-06-22 00:32:00,
2013-06-21 20:33:00,83.4,75.1,30.06,East,80,2.0,6.0,76,0.00,,FEW,0.00,0.00,VWS V14.01,2013-06-22 00:33:00,
2013-06-21 20:35:00,83.3,74.9,30.06,ESE,122,0.0,6.0,76,0.00,,FEW,0.00,0.00,VWS V14.01,2013-06-22 00:35:00,
2013-06-21 20:37:00,83.2,74.8,30.06,SE,131,0.0,6.0,76,0.00,,FEW,0.00,0.00,VWS V14.01,2013-06-22 00:37:00,
2013-06-21 20:38:00,83.2,74.8,30.06,SE,131,0.0,6.0,76,0.00,,FEW,0.00,0.00,VWS V14.01,2013-06-22 00:38:00,
2013-06-21 20:40:00,83.1,74.8,30.06,ENE,61,1.0,7.0,76,0.00,,FEW,0.00,0.00,VWS V14.01,2013-06-22 00:40:00,
2013-06-21 20:43:00,83.1,74.8,30.06,ENE,69,2.0,5.0,76,0.00,,FEW,0.00,0.00,VWS V14.01,2013-06-22 00:43:00,
2013-06-21 20:44:00,83.0,74.7,30.06,ENE,71,1.0,5.0,76,0.00,,FEW,0.00,0.00,VWS V14.01,2013-06-22 00:44:00,
2013-06-21 20:45:00,83.0,74.7,30.06,East,84,3.0,5.0,76,0.00,,FEW,0.00,0.00,VWS V14.01,2013-06-22 00:45:00,
2013-06-21 20:48:00,83.1,75.2,30.06,ENE,68,4.0,6.0,77,0.00,,FEW,0.00,0.00,VWS V14.01,2013-06-22 00:48:00,
2013-06-21 20:49:00,83.1,75.2,30.06,East,82,2.0,6.0,77,0.00,,FEW,0.00,0.00,VWS V14.01,2013-06-22 00:49:00,
2013-06-21 20:50:00,83.1,75.2,30.06,ESE,116,1.0,6.0,77,0.00,,FEW,0.00,0.00,VWS V14.01,2013-06-22 00:50:00,
2013-06-21 20:51:00,83.1,75.2,30.06,NE,56,4.0,6.0,77,0.00,,FEW,0.00,0.00,VWS V14.01,2013-06-22 00:51:00,
2013-06-21 20:53:00,83.0,74.7,30.06,East,86,7.0,10.0,76,0.00,,FEW,0.00,0.00,VWS V14.01,2013-06-22 00:53:00,
2013-06-21 20:54:00,82.9,74.2,30.06,East,82,3.0,10.0,75,0.00,,FEW,0.00,0.00,VWS V14.01,2013-06-22 00:54:00,
2013-06-21 20:56:00,82.8,74.1,30.06,ESE,114,7.0,10.0,75,0.00,,FEW,0.00,0.00,VWS V14.01,2013-06-22 00:56:00,
2013-06-21 20:58:00,82.8,74.1,30.06,East,89,2.0,10.0,75,0.00,,FEW,0.00,0.00,VWS V14.01,2013-06-22 00:58:00,
2013-06-21 20:59:00,82.8,74.1,30.06,ESE,109,2.0,10.0,75,0.00,,FEW,0.00,0.00,VWS V14.01,2013-06-22 00:59:00,
2013-06-21 21:01:00,82.8,74.1,30.06,East,90,1.0,10.0,75,0.00,,FEW,0.00,0.00,VWS V14.01,2013-06-22 01:01:00,
2013-06-21 21:03:00,82.8,74.5,30.07,East,92,2.0,8.0,76,0.00,,FEW,0.00,0.00,VWS V14.01,2013-06-22 01:03:00,
2013-06-21 21:04:00,82.8,74.1,30.07,ENE,70,1.0,8.0,75,0.00,,FEW,0.00,0.00,VWS V14.01,2013-06-22 01:04:00,
2013-06-21 21:06:00,82.8,74.1,30.07,ENE,59,3.0,8.0,75,0.00,,FEW,0.00,0.00,VWS V14.01,2013-06-22 01:06:00,
2013-06-21 21:08:00,82.7,73.6,30.07,East,88,2.0,8.0,74,0.00,,FEW,0.00,0.00,VWS V14.01,2013-06-22 01:08:00,
2013-06-21 21:09:00,82.7,73.6,30.07,ESE,118,2.0,8.0,74,0.00,,FEW,0.00,0.00,VWS V14.01,2013-06-22 01:09:00,
2013-06-21 21:11:00,82.7,73.6,30.07,East,84,5.0,8.0,74,0.00,,FEW,0.00,0.00,VWS V14.01,2013-06-22 01:11:00,
2013-06-21 21:14:00,82.7,73.2,30.07,NE,46,4.0,7.0,73,0.00,,FEW,0.00,0.00,VWS V14.01,2013-06-22 01:14:00,
2013-06-21 21:15:00,82.7,73.2,30.07,ESE,105,4.0,7.0,73,0.00,,FEW,0.00,0.00,VWS V14.01,2013-06-22 01:15:00,
2013-06-21 21:16:00,82.7,73.2,30.07,ENE,77,2.0,7.0,73,0.00,,FEW,0.00,0.00,VWS V14.01,2013-06-22 01:16:00,
2013-06-21 21:19:00,82.7,73.6,30.07,East,82,0.0,8.0,74,0.00,,FEW,0.00,0.00,VWS V14.01,2013-06-22 01:19:00,
2013-06-21 21:20:00,82.8,73.7,30.07,ENE,78,2.0,8.0,74,0.00,,FEW,0.00,0.00,VWS V14.01,2013-06-22 01:20:00,
2013-06-21 21:21:00,82.8,73.7,30.07,SE,129,1.0,8.0,74,0.00,,FEW,0.00,0.00,VWS V14.01,2013-06-22 01:21:00,
2013-06-21 21:22:00,82.9,74.2,30.07,East,95,2.0,2.0,75,0.00,,FEW,0.00,0.00,VWS V14.01,2013-06-22 01:22:00,
2013-06-21 21:24:00,82.8,73.7,30.07,ENE,60,2.0,7.0,74,0.00,,FEW,0.00,0.00,VWS V14.01,2013-06-22 01:24:00,
2013-06-21 21:25:00,82.8,73.7,30.07,East,80,1.0,7.0,74,0.00,,FEW,0.00,0.00,VWS V14.01,2013-06-22 01:25:00,
2013-06-21 21:26:00,82.8,73.7,30.07,NE,53,4.0,7.0,74,0.00,,FEW,0.00,0.00,VWS V14.01,2013-06-22 01:26:00,
2013-06-21 21:27:00,82.8,73.7,30.07,ENE,57,2.0,7.0,74,0.00,,FEW,0.00,0.00,VWS V14.01,2013-06-22 01:27:00,
2013-06-21 21:29:00,82.8,73.7,30.07,East,100,6.0,7.0,74,0.00,,FEW,0.00,0.00,VWS V14.01,2013-06-22 01:29:00,
2013-06-21 21:30:00,82.8,73.3,30.07,East,98,7.0,7.0,73,0.00,,FEW,0.00,0.00,VWS V14.01,2013-06-22 01:30:00,
2013-06-21 21:31:00,82.7,73.2,30.08,East,80,7.0,7.0,73,0.00,,FEW,0.00,0.00,VWS V14.01,2013-06-22 01:31:00,
2013-06-21 21:32:00,82.8,73.7,30.08,ENE,59,4.0,4.0,74,0.00,,FEW,0.00,0.00,VWS V14.01,2013-06-22 01:32:00,
2013-06-21 21:34:00,82.8,73.7,30.08,ESE,106,2.0,6.0,74,0.00,,FEW,0.00,0.00,VWS V14.01,2013-06-22 01:34:00,
2013-06-21 21:35:00,82.9,74.2,30.08,NE,54,0.0,6.0,75,0.00,,FEW,0.00,0.00,VWS V14.01,2013-06-22 01:35:00,
2013-06-21 21:36:00,82.9,74.2,30.08,ENE,66,2.0,6.0,75,0.00,,FEW,0.00,0.00,VWS V14.01,2013-06-22 01:36:00,
2013-06-21 21:37:00,82.9,74.2,30.08,NE,55,2.0,6.0,75,0.00,,FEW,0.00,0.00,VWS V14.01,2013-06-22 01:37:00,
2013-06-21 21:39:00,82.9,74.2,30.08,NE,55,2.0,6.0,75,0.00,,FEW,0.00,0.00,VWS V14.01,2013-06-22 01:39:00,
2013-06-21 21:40:00,82.9,74.2,30.08,ENE,68,3.0,6.0,75,0.00,,FEW,0.00,0.00,VWS V14.01,2013-06-22 01:40:00,
2013-06-21 21:41:00,82.8,74.1,30.08,ESE,117,2.0,6.0,75,0.00,,FEW,0.00,0.00,VWS V14.01,2013-06-22 01:41:00,
2013-06-21 21:42:00,82.8,74.1,30.08,SE,126,3.0,4.0,75,0.00,,FEW,0.00,0.00,VWS V14.01,2013-06-22 01:42:00,
2013-06-21 21:44:00,82.9,74.2,30.08,NE,44,3.0,4.0,75,0.00,,FEW,0.00,0.00,VWS V14.01,2013-06-22 01:44:00,
2013-06-21 21:45:00,82.9,74.6,30.08,East,81,1.0,7.0,76,0.00,,FEW,0.00,0.00,VWS V14.01,2013-06-22 01:45:00,
2013-06-21 21:46:00,82.9,74.6,30.08,East,94,7.0,7.0,76,0.00,,FEW,0.00,0.00,VWS V14.01,2013-06-22 01:46:00,
2013-06-21 21:48:00,83.0,74.7,30.08,ENE,58,1.0,7.0,76,0.00,,FEW,0.00,0.00,VWS V14.01,2013-06-22 01:48:00,
2013-06-21 21:49:00,83.0,74.7,30.08,NE,38,4.0,7.0,76,0.00,,FEW,0.00,0.00,VWS V14.01,2013-06-22 01:49:00,
2013-06-21 21:50:00,83.0,75.1,30.08,East,80,5.0,7.0,77,0.00,,FEW,0.00,0.00,VWS V14.01,2013-06-22 01:50:00,
2013-06-21 21:51:00,83.0,75.1,30.08,NE,53,0.0,7.0,77,0.00,,FEW,0.00,0.00,VWS V14.01,2013-06-22 01:51:00,
2013-06-21 21:53:00,83.0,75.1,30.08,ENE,63,4.0,9.0,77,0.00,,FEW,0.00,0.00,VWS V14.01,2013-06-22 01:53:00,
2013-06-21 21:54:00,83.0,75.1,30.08,ENE,59,2.0,9.0,77,0.00,,FEW,0.00,0.00,VWS V14.01,2013-06-22 01:54:00,
2013-06-21 21:55:00,83.0,75.1,30.08,ENE,57,4.0,9.0,77,0.00,,FEW,0.00,0.00,VWS V14.01,2013-06-22 01:55:00,
2013-06-21 21:56:00,82.9,74.9,30.08,East,92,5.0,9.0,77,0.00,,FEW,0.00,0.00,VWS V14.01,2013-06-22 01:56:00,
2013-06-21 21:57:00,82.9,74.9,30.08,NE,51,2.0,9.0,77,0.00,,FEW,0.00,0.00,VWS V14.01,2013-06-22 01:57:00,
2013-06-21 21:58:00,83.0,75.1,30.08,East,92,7.0,9.0,77,0.00,,FEW,0.00,0.00,VWS V14.01,2013-06-22 01:58:00,
2013-06-21 21:59:00,82.9,74.9,30.08,ESE,111,4.0,9.0,77,0.00,,FEW,0.00,0.00,VWS V14.01,2013-06-22 01:59:00,
2013-06-21 22:00:00,82.9,74.9,30.08,ENE,62,2.0,9.0,77,0.00,,FEW,0.00,0.00,VWS V14.01,2013-06-22 02:00:00,
2013-06-21 22:01:00,82.9,74.9,30.09,ENE,60,0.0,9.0,77,0.00,,FEW,0.00,0.00,VWS V14.01,2013-06-22 02:01:00,
2013-06-21 22:02:00,82.9,75.3,30.09,ESE,115,2.0,5.0,78,0.00,,FEW,0.00,0.00,VWS V14.01,2013-06-22 02:02:00,
2013-06-21 22:03:00,82.9,75.3,30.09,NE,50,0.0,5.0,78,0.00,,FEW,0.00,0.00,VWS V14.01,2013-06-22 02:03:00,
2013-06-21 22:04:00,82.9,75.3,30.09,ENE,70,2.0,5.0,78,0.00,,FEW,0.00,0.00,VWS V14.01,2013-06-22 02:04:00,
2013-06-21 22:05:00,82.9,75.3,30.09,ENE,75,7.0,7.0,78,0.00,,FEW,0.00,0.00,VWS V14.01,2013-06-22 02:05:00,
2013-06-21 22:06:00,82.9,75.3,30.09,ENE,67,1.0,7.0,78,0.00,,FEW,0.00,0.00,VWS V14.01,2013-06-22 02:06:00,
2013-06-21 22:07:00,82.9,75.3,30.09,NE,43,3.0,7.0,78,0.00,,FEW,0.00,0.00,VWS V14.01,2013-06-22 02:07:00,
2013-06-21 22:08:00,82.8,75.2,30.09,East,92,3.0,7.0,78,0.00,,FEW,0.00,0.00,VWS V14.01,2013-06-22 02:08:00,
2013-06-21 22:09:00,82.8,74.9,30.09,ENE,64,4.0,9.0,77,0.00,,FEW,0.00,0.00,VWS V14.01,2013-06-22 02:09:00,
2013-06-21 22:11:00,82.8,74.9,30.09,East,82,2.0,9.0,77,0.00,,FEW,0.00,0.00,VWS V14.01,2013-06-22 02:11:00,
2013-06-21 22:12:00,82.7,74.8,30.09,ESE,103,2.0,4.0,77,0.00,,FEW,0.00,0.00,VWS V14.01,2013-06-22 02:12:00,
2013-06-21 22:13:00,82.8,75.2,30.09,ENE,70,1.0,8.0,78,0.00,,FEW,0.00,0.00,VWS V14.01,2013-06-22 02:13:00,
2013-06-21 22:14:00,82.8,75.2,30.09,ESE,102,3.0,8.0,78,0.00,,FEW,0.00,0.00,VWS V14.01,2013-06-22 02:14:00,
2013-06-21 22:16:00,82.8,75.2,30.08,SE,132,5.0,8.0,78,0.00,,FEW,0.00,0.00,VWS V14.01,2013-06-22 02:16:00,
2013-06-21 22:17:00,82.7,75.2,30.08,East,84,3.0,8.0,78,0.00,,FEW,0.00,0.00,VWS V14.01,2013-06-22 02:17:00,
2013-06-21 22:19:00,82.7,75.2,30.08,SE,130,4.0,9.0,78,0.00,,FEW,0.00,0.00,VWS V14.01,2013-06-22 02:19:00,
2013-06-21 22:20:00,82.7,75.2,30.08,ESE,118,5.0,9.0,78,0.00,,FEW,0.00,0.00,VWS V14.01,2013-06-22 02:20:00,
2013-06-21 22:21:00,82.7,75.5,30.08,ENE,77,1.0,9.0,79,0.00,,FEW,0.00,0.00,VWS V14.01,2013-06-22 02:21:00,
2013-06-21 22:22:00,82.7,75.5,30.08,ESE,111,2.0,7.0,79,0.00,,FEW,0.00,0.00,VWS V14.01,2013-06-22 02:22:00,
2013-06-21 22:24:00,82.8,75.6,30.08,SE,130,0.0,7.0,79,0.00,,FEW,0.00,0.00,VWS V14.01,2013-06-22 02:24:00,
2013-06-21 22:25:00,82.8,75.6,30.08,NNE,32,1.0,7.0,79,0.00,,FEW,0.00,0.00,VWS V14.01,2013-06-22 02:25:00,
2013-06-21 22:26:00,82.8,75.6,30.08,ESE,123,1.0,7.0,79,0.00,,FEW,0.00,0.00,VWS V14.01,2013-06-22 02:26:00,
2013-06-21 22:27:00,82.8,75.6,30.08,ENE,75,3.0,7.0,79,0.00,,FEW,0.00,0.00,VWS V14.01,2013-06-22 02:27:00,
2013-06-21 22:29:00,82.7,75.2,30.08,ENE,64,2.0,7.0,78,0.00,,FEW,0.00,0.00,VWS V14.01,2013-06-22 02:29:00,
2013-06-21 22:30:00,82.7,75.2,30.08,ESE,106,4.0,7.0,78,0.00,,FEW,0.00,0.00,VWS V14.01,2013-06-22 02:30:00,
2013-06-21 22:31:00,82.6,75.1,30.08,East,88,2.0,7.0,78,0.00,,FEW,0.00,0.00,VWS V14.01,2013-06-22 02:31:00,
2013-06-21 22:32:00,82.6,74.7,30.08,ENE,65,1.0,3.0,77,0.00,,FEW,0.00,0.00,VWS V14.01,2013-06-22 02:32:00,
2013-06-21 22:34:00,82.5,74.9,30.08,ENE,69,1.0,5.0,78,0.00,,FEW,0.00,0.00,VWS V14.01,2013-06-22 02:34:00,
2013-06-21 22:35:00,82.5,74.9,30.08,ENE,76,4.0,5.0,78,0.00,,FEW,0.00,0.00,VWS V14.01,2013-06-22 02:35:00,
2013-06-21 22:36:00,82.5,74.6,30.08,ENE,71,2.0,5.0,77,0.00,,FEW,0.00,0.00,VWS V14.01,2013-06-22 02:36:00,
2013-06-21 22:37:00,82.5,74.6,30.08,ENE,74,4.0,5.0,77,0.00,,FEW,0.00,0.00,VWS V14.01,2013-06-22 02:37:00,
2013-06-21 22:40:00,82.5,74.6,30.08,NE,54,2.0,8.0,77,0.00,,FEW,0.00,0.00,VWS V14.01,2013-06-22 02:40:00,
2013-06-21 22:41:00,82.5,74.6,30.08,ENE,59,1.0,8.0,77,0.00,,FEW,0.00,0.00,VWS V14.01,2013-06-22 02:41:00,
2013-06-21 22:42:00,82.5,74.6,30.08,East,83,5.0,6.0,77,0.00,,FEW,0.00,0.00,VWS V14.01,2013-06-22 02:42:00,
2013-06-21 22:45:00,82.5,74.9,30.08,ESE,116,4.0,6.0,78,0.00,,FEW,0.00,0.00,VWS V14.01,2013-06-22 02:45:00,
2013-06-21 22:46:00,82.5,74.9,30.08,NE,53,3.0,6.0,78,0.00,,FEW,0.00,0.00,VWS V14.01,2013-06-22 02:46:00,
2013-06-21 22:47:00,82.6,75.1,30.08,East,90,5.0,6.0,78,0.00,,FEW,0.00,0.00,VWS V14.01,2013-06-22 02:47:00,
2013-06-21 22:51:00,82.5,74.9,30.08,East,94,6.0,6.0,78,0.00,,FEW,0.00,0.00,VWS V14.01,2013-06-22 02:51:00,
2013-06-21 22:52:00,82.6,75.1,30.08,East,99,3.0,5.0,78,0.00,,FEW,0.00,0.00,VWS V14.01,2013-06-22 02:52:00,
2013-06-21 22:56:00,82.6,75.1,30.08,NE,36,2.0,8.0,78,0.00,,FEW,0.00,0.00,VWS V14.01,2013-06-22 02:56:00,
2013-06-21 22:57:00,82.6,75.1,30.08,NE,37,4.0,8.0,78,0.00,,FEW,0.00,0.00,VWS V14.01,2013-06-22 02:57:00,
2013-06-21 23:01:00,82.5,74.6,30.08,NE,56,4.0,8.0,77,0.00,,FEW,0.00,0.00,VWS V14.01,2013-06-22 03:01:00,
2013-06-21 23:02:00,82.5,74.6,30.08,ESE,113,7.0,7.0,77,0.00,,FEW,0.00,0.00,VWS V14.01,2013-06-22 03:02:00,
2013-06-21 23:06:00,82.5,74.6,30.08,ENE,58,2.0,7.0,77,0.00,,FEW,0.00,0.00,VWS V14.01,2013-06-22 03:06:00,
2013-06-21 23:07:00,82.5,74.6,30.08,ENE,66,5.0,7.0,77,0.00,,FEW,0.00,0.00,VWS V14.01,2013-06-22 03:07:00,
2013-06-21 23:11:00,82.4,74.5,30.08,ENE,78,1.0,8.0,77,0.00,,FEW,0.00,0.00,VWS V14.01,2013-06-22 03:11:00,
2013-06-21 23:12:00,82.5,74.6,30.08,ESE,119,3.0,3.0,77,0.00,,FEW,0.00,0.00,VWS V14.01,2013-06-22 03:12:00,
2013-06-21 23:13:00,82.4,74.5,30.08,East,92,3.0,4.0,77,0.00,,FEW,0.00,0.00,VWS V14.01,2013-06-22 03:13:00,
2013-06-21 23:16:00,82.6,75.1,30.08,ENE,59,3.0,7.0,78,0.00,,FEW,0.00,0.00,VWS V14.01,2013-06-22 03:16:00,
2013-06-21 23:17:00,82.5,74.9,30.08,SE,130,5.0,8.0,78,0.00,,FEW,0.00,0.00,VWS V14.01,2013-06-22 03:17:00,
2013-06-21 23:18:00,82.5,74.6,30.08,ESE,119,7.0,8.0,77,0.00,,FEW,0.00,0.00,VWS V14.01,2013-06-22 03:18:00,
2013-06-21 23:21:00,82.5,74.6,30.08,NNE,29,3.0,10.0,77,0.00,,FEW,0.00,0.00,VWS V14.01,2013-06-22 03:21:00,
2013-06-21 23:22:00,82.5,74.6,30.08,East,90,3.0,8.0,77,0.00,,FEW,0.00,0.00,VWS V14.01,2013-06-22 03:22:00,
2013-06-21 23:23:00,82.5,74.6,30.08,ENE,77,5.0,8.0,77,0.00,,FEW,0.00,0.00,VWS V14.01,2013-06-22 03:23:00,
2013-06-21 23:26:00,82.6,74.7,30.08,ESE,116,2.0,10.0,77,0.00,,FEW,0.00,0.00,VWS V14.01,2013-06-22 03:26:00,
2013-06-21 23:27:00,82.6,74.7,30.08,East,100,3.0,10.0,77,0.00,,FEW,0.00,0.00,VWS V14.01,2013-06-22 03:27:00,
2013-06-21 23:28:00,82.6,74.7,30.08,NE,54,5.0,10.0,77,0.00,,FEW,0.00,0.00,VWS V14.01,2013-06-22 03:28:00,
2013-06-21 23:31:00,82.6,75.1,30.08,East,94,7.0,10.0,78,0.00,,FEW,0.00,0.00,VWS V14.01,2013-06-22 03:31:00,
2013-06-21 23:32:00,82.6,75.1,30.08,ESE,107,4.0,4.0,78,0.00,,FEW,0.00,0.00,VWS V14.01,2013-06-22 03:32:00,
2013-06-21 23:33:00,82.7,75.2,30.08,ENE,67,2.0,5.0,78,0.00,,FEW,0.00,0.00,VWS V14.01,2013-06-22 03:33:00,
2013-06-21 23:37:00,82.7,75.2,30.08,East,92,5.0,5.0,78,0.00,,FEW,0.00,0.00,VWS V14.01,2013-06-22 03:37:00,
2013-06-21 23:38:00,82.7,75.2,30.08,East,85,2.0,5.0,78,0.00,,FEW,0.00,0.00,VWS V14.01,2013-06-22 03:38:00,
2013-06-21 23:42:00,82.7,75.5,30.08,ESE,107,5.0,5.0,79,0.00,,FEW,0.00,0.00,VWS V14.01,2013-06-22 03:42:00,
2013-06-21 23:43:00,82.6,75.1,30.08,ENE,78,0.0,5.0,78,0.00,,FEW,0.00,0.00,VWS V14.01,2013-06-22 03:43:00,
2013-06-21 23:44:00,82.6,75.1,30.08,East,97,3.0,6.0,78,0.00,,FEW,0.00,0.00,VWS V14.01,2013-06-22 03:44:00,
2013-06-21 23:47:00,82.4,74.1,30.08,East,97,1.0,7.0,76,0.00,,FEW,0.00,0.00,VWS V14.01,2013-06-22 03:47:00,
2013-06-21 23:48:00,82.3,74.0,30.08,ENE,78,2.0,7.0,76,0.00,,FEW,0.00,0.00,VWS V14.01,2013-06-22 03:48:00,
2013-06-21 23:49:00,82.3,74.0,30.08,NE,47,6.0,7.0,76,0.00,,FEW,0.00,0.00,VWS V14.01,2013-06-22 03:49:00,
2013-06-21 23:52:00,82.3,74.4,30.08,East,84,3.0,4.0,77,0.00,,FEW,0.00,0.00,VWS V14.01,2013-06-22 03:52:00,
2013-06-21 23:53:00,82.3,74.4,30.08,ENE,63,2.0,7.0,77,0.00,,FEW,0.00,0.00,VWS V14.01,2013-06-22 03:53:00,
2013-06-21 23:54:00,82.3,74.4,30.08,SE,127,4.0,10.0,77,0.00,,FEW,0.00,0.00,VWS V14.01,2013-06-22 03:54:00,
2013-06-21 23:57:00,82.5,74.9,30.08,ENE,64,2.0,10.0,78,0.00,,FEW,0.00,0.00,VWS V14.01,2013-06-22 03:57:00,
2013-06-21 23:58:00,82.5,74.9,30.08,East,84,1.0,10.0,78,0.00,,FEW,0.00,0.00,VWS V14.01,2013-06-22 03:58:00,
2013-06-21 23:59:00,82.5,74.9,30.08,ESE,107,2.0,10.0,78,0.00,,FEW,0.00,0.00,VWS V14.01,2013-06-22 03:59:00,